Data for 07/30/2011

Time Sea-Level Adjusted Pressure Absolute Pressure Temperature Relative Humidity Dew Point Precipitation   
(mb) (inHg) (mb) (inHg) (C) (F) (%) (C) (F) (mm) (in)
00:01 1022 30.18 851 25.13 15.1 59.1 39 1.4 34.5 -86.9 -3.421
00:02 1022 30.18 851 25.13 14.9 58.8 41 1.7 35.1 -87 -3.425
00:03 1022 30.18 851 25.13 14.6 58.3 41 1.7 35.1 -87 -3.425
00:04 1022 30.18 852 25.16 14.4 58 41 1.6 34.8 -87 -3.425
00:05 1022 30.18 851 25.13 14.4 57.8 41 1.4 34.6 -87 -3.425
00:06 1022 30.18 852 25.16 14.4 57.8 40 1.2 34.1 -87 -3.425
00:07 1022 30.18 851 25.13 14.5 58.1 39 0.7 33.3 -87 -3.425
00:08 1022 30.18 851 25.13 14.7 58.5 40 1.3 34.4 -87 -3.425
00:09 1022 30.18 851 25.13 14.5 58.1 42 1.9 35.5 -87 -3.425
00:10 1022 30.18 851 25.13 14.1 57.4 44 2.2 35.9 -87 -3.425
00:11 1022 30.18 851 25.13 13.8 56.8 46 2.4 36.4 -87 -3.425
00:12 1022 30.18 851 25.13 13.2 55.8 48 2.5 36.4 -87 -3.425
00:13 1022 30.18 852 25.16 12.9 55.2 47 2 35.6 -87 -3.425
00:14 1022 30.18 851 25.13 12.9 55.1 47 1.8 35.2 -87 -3.425
00:15 1022 30.18 852 25.16 12.9 55.1 48 2.1 35.7 -87 -3.425
00:16 1022 30.18 852 25.16 12.9 55.1 47 1.8 35.2 -87 -3.425
00:17 1022 30.18 852 25.16 12.9 55.2 48 2.3 36.1 -87.1 -3.429
00:18 1022 30.18 852 25.16 12.7 54.9 49 2.5 36.4 -87.1 -3.429
00:19 1022 30.18 852 25.16 12.6 54.6 49 2.2 36 -87.1 -3.429
00:20 1022 30.18 852 25.16 12.6 54.6 49 2.1 35.8 -87.1 -3.429
00:21 1022 30.18 852 25.16 12.7 54.8 49 2.4 36.2 -87.1 -3.429
00:22 1022 30.18 852 25.16 12.6 54.6 50 2.6 36.7 -87.1 -3.429
00:23 1022 30.18 852 25.16 12.3 54.2 52 2.7 36.8 -87.2 -3.433
00:24 1022 30.18 852 25.16 12.1 53.8 52 2.6 36.6 -87.2 -3.433
00:25 1022 30.18 852 25.16 11.9 53.4 52 2.4 36.4 -87.2 -3.433
00:26 1022 30.18 852 25.16 11.8 53.2 53 2.5 36.5 -87.2 -3.433
00:27 1022 30.18 852 25.16 11.7 53 54 2.6 36.8 -87.2 -3.433
00:28 1022 30.18 852 25.16 11.5 52.7 54 2.7 36.9 -87.2 -3.433
00:29 1022 30.18 852 25.16 11.4 52.5 55 2.6 36.8 -87.2 -3.433
00:30 1022 30.18 852 25.16 11.3 52.4 54 2.4 36.3 -87.2 -3.433
00:31 1022 30.18 852 25.16 11.4 52.5 53 2.2 36 -87.3 -3.437
00:32 1022 30.18 852 25.16 11.5 52.8 52 2.1 35.7 -87.3 -3.437
00:33 1022 30.18 852 25.16 11.7 53.1 51 2 35.6 -87.3 -3.437
00:34 1023 30.21 852 25.16 11.9 53.4 51 2.1 35.8 -87.3 -3.437
00:35 1023 30.21 852 25.16 11.8 53.3 53 2.5 36.5 -87.4 -3.441
00:36 1023 30.21 852 25.16 11.6 53 51 2 35.6 -87.4 -3.441
00:37 1023 30.21 852 25.16 11.7 53 51 2.1 35.7 -87.4 -3.441
00:38 1023 30.21 852 25.16 11.8 53.2 53 2.5 36.5 -87.4 -3.441
00:39 1023 30.21 852 25.16 11.7 53 52 2.3 36.2 -87.4 -3.441
00:40 1023 30.21 852 25.16 11.6 53 53 2.3 36.2 -87.4 -3.441
00:41 1023 30.21 852 25.16 11.6 52.9 54 2.5 36.6 -87.4 -3.441
00:42 1023 30.21 852 25.16 11.5 52.7 53 2.2 36 -87.5 -3.445
00:43 1023 30.21 852 25.16 11.6 52.8 53 2.3 36.1 -87.5 -3.445
00:44 1023 30.21 852 25.16 11.6 52.8 52 2.2 35.9 -87.5 -3.445
00:45 1023 30.21 852 25.16 11.7 53 53 2.6 36.6 -87.5 -3.445
00:46 1023 30.21 852 25.16 11.5 52.7 54 2.5 36.5 -87.6 -3.449
00:47 1023 30.21 852 25.16 11.3 52.4 54 2.4 36.3 -87.6 -3.449
00:48 1023 30.21 852 25.16 11.3 52.4 55 2.6 36.7 -87.6 -3.449
00:49 1023 30.21 852 25.16 11.3 52.3 54 2.3 36.2 -87.6 -3.449
00:50 1023 30.21 852 25.16 11.3 52.3 54 2.4 36.3 -87.6 -3.449
00:51 1023 30.21 852 25.16 11.3 52.3 53 2.1 35.9 -87.6 -3.449
00:52 1023 30.21 852 25.16 11.4 52.5 52 1.8 35.3 -87.6 -3.449
00:53 1023 30.21 852 25.16 11.6 52.8 51 1.9 35.5 -87.7 -3.453
00:54 1023 30.21 852 25.16 11.7 53 52 2.1 35.8 -87.7 -3.453
00:55 1023 30.21 852 25.16 11.7 53 51 1.9 35.4 -87.7 -3.453
00:56 1023 30.21 852 25.16 11.8 53.2 50 1.9 35.4 -87.7 -3.453
00:57 1023 30.21 852 25.16 11.8 53.3 51 2.1 35.7 -87.7 -3.453
00:58 1023 30.21 852 25.16 11.8 53.2 51 1.9 35.4 -87.8 -3.457
00:59 1023 30.21 852 25.16 11.7 53.1 51 2.1 35.7 -87.8 -3.457
01:00 1023 30.21 852 25.16 11.7 53 50 1.8 35.2 -87.8 -3.457
01:01 1023 30.21 852 25.16 11.7 53.1 50 1.7 35.1 -87.8 -3.457
01:02 1023 30.21 852 25.16 11.7 53.1 51 1.9 35.5 -87.8 -3.457
01:03 1023 30.21 852 25.16 11.7 53.1 52 2.1 35.9 -87.8 -3.457
01:04 1023 30.21 852 25.16 11.6 52.8 52 2.1 35.7 -87.8 -3.457
01:05 1023 30.21 852 25.16 11.5 52.6 52 2.1 35.8 -87.9 -3.461
01:06 1023 30.21 852 25.16 11.3 52.3 53 2.2 36 -87.9 -3.461
01:07 1023 30.21 852 25.16 11.2 52.1 54 2.3 36.1 -87.9 -3.461
01:08 1023 30.21 852 25.16 11 51.7 55 2.3 36.1 -87.9 -3.461
01:09 1023 30.21 852 25.16 10.9 51.6 54 2 35.6 -87.9 -3.461
01:10 1023 30.21 852 25.16 10.9 51.6 54 2 35.6 -87.9 -3.461
01:11 1023 30.21 852 25.16 11 51.8 52 1.6 35 -87.9 -3.461
01:12 1023 30.21 852 25.16 11.3 52.3 52 1.8 35.3 -87.9 -3.461
01:13 1023 30.21 852 25.16 11.4 52.4 52 1.9 35.4 -87.9 -3.461
01:14 1023 30.21 852 25.16 11.4 52.5 52 2.1 35.7 -88 -3.465
01:15 1023 30.21 852 25.16 11.4 52.6 52 1.9 35.4 -88 -3.465
01:16 1023 30.21 852 25.16 11.4 52.5 51 1.8 35.2 -88 -3.465
01:17 1023 30.21 852 25.16 11.4 52.6 52 2.1 35.8 -88 -3.465
01:18 1023 30.21 852 25.16 11.4 52.5 54 2.4 36.2 -88 -3.465
01:19 1023 30.21 852 25.16 11.2 52.2 53 2.2 35.9 -88 -3.465
01:20 1023 30.21 852 25.16 11.2 52.2 53 2.1 35.8 -88 -3.465
01:21 1023 30.21 852 25.16 11.3 52.4 53 2.3 36.1 -88 -3.465
01:22 1023 30.21 852 25.16 11.3 52.4 53 2.3 36.1 -88.1 -3.469
01:23 1023 30.21 852 25.16 11.2 52.1 54 2.4 36.3 -88.1 -3.469
01:24 1023 30.21 852 25.16 11.1 51.9 57 2.8 37.1 -88.1 -3.469
01:25 1023 30.21 852 25.16 10.7 51.3 60 3.2 37.8 -88.1 -3.469
01:26 1023 30.21 852 25.16 10.3 50.6 61 3.2 37.7 -88.1 -3.469
01:27 1023 30.21 852 25.16 10 50 62 3 37.5 -88.1 -3.469
01:28 1023 30.21 852 25.16 9.9 49.7 62 2.9 37.3 -88.1 -3.469
01:29 1023 30.21 852 25.16 9.9 49.7 62 2.9 37.2 -88.1 -3.469
01:30 1023 30.21 852 25.16 10 50.1 60 2.6 36.7 -88.1 -3.469
01:31 1023 30.21 852 25.16 10.4 50.7 58 2.6 36.6 -88.1 -3.469
01:32 1023 30.21 852 25.16 10.8 51.4 56 2.5 36.5 -88.1 -3.469
01:33 1023 30.21 852 25.16 11.2 52.1 54 2.4 36.3 -88.2 -3.472
01:34 1023 30.21 852 25.16 11.5 52.8 53 2.4 36.4 -88.2 -3.472
01:35 1023 30.21 852 25.16 11.9 53.4 52 2.4 36.3 -88.2 -3.472
01:36 1023 30.21 852 25.16 12.1 53.8 52 2.5 36.5 -88.2 -3.472
01:37 1023 30.21 852 25.16 12.3 54.1 51 2.3 36.2 -88.2 -3.472
01:38 1023 30.21 852 25.16 12.4 54.3 50 2.4 36.3 -88.2 -3.472
01:39 1023 30.21 852 25.16 12.6 54.6 49 2.3 36.1 -88.3 -3.476
01:40 1023 30.21 852 25.16 12.7 54.8 49 2.2 36 -88.3 -3.476
01:41 1023 30.21 852 25.16 12.8 55 48 2.2 36 -88.3 -3.476
01:42 1023 30.21 852 25.16 12.9 55.1 49 2.5 36.6 -88.3 -3.476
01:43 1023 30.21 852 25.16 12.9 55.1 49 2.4 36.4 -88.3 -3.476
01:44 1023 30.21 852 25.16 13 55.3 48 2.2 35.9 -88.3 -3.476
01:45 1023 30.21 852 25.16 13.1 55.5 47 2.1 35.8 -88.3 -3.476
01:46 1023 30.21 852 25.16 13.2 55.7 47 2.2 36 -88.3 -3.476
01:47 1023 30.21 852 25.16 13.2 55.8 47 2.2 36 -88.3 -3.476
01:48 1023 30.21 852 25.16 13.3 55.9 47 2.3 36.2 -88.3 -3.476
01:49 1023 30.21 852 25.16 13.3 55.9 48 2.4 36.4 -88.3 -3.476
01:50 1023 30.21 852 25.16 13.2 55.8 47 2.4 36.2 -88.3 -3.476
01:51 1023 30.21 852 25.16 13.3 55.9 47 2.2 36 -88.3 -3.476
01:52 1023 30.21 852 25.16 13.3 55.9 47 2.3 36.2 -88.3 -3.476
01:53 1023 30.21 852 25.16 13.3 55.9 47 2.2 36 -88.3 -3.476
01:54 1023 30.21 852 25.16 13.3 55.9 47 2.3 36.2 -88.3 -3.476
01:55 1023 30.21 852 25.16 13.3 55.9 47 2.2 36 -88.3 -3.476
01:56 1023 30.21 852 25.16 13.3 56 47 2.4 36.3 -88.3 -3.476
01:57 1023 30.21 852 25.16 13.3 55.9 47 2.3 36.2 -88.4 -3.48
01:58 1023 30.21 852 25.16 13.3 55.9 46 2.1 35.9 -88.4 -3.48
01:59 1023 30.21 852 25.16 13.3 55.9 47 2.2 36 -88.4 -3.48
02:00 1023 30.21 852 25.16 13.4 56 46 2.1 35.7 -88.4 -3.48
02:01 1023 30.21 852 25.16 13.4 56.1 46 2 35.7 -88.4 -3.48
02:02 1023 30.21 852 25.16 13.4 56.2 46 2.1 35.7 -88.4 -3.48
02:03 1023 30.21 852 25.16 13.4 56.2 46 2.2 36 -88.4 -3.48
02:04 1023 30.21 852 25.16 13.5 56.3 46 2.3 36.2 -88.4 -3.48
02:05 1023 30.21 852 25.16 13.4 56.2 46 2.2 36 -88.4 -3.48
02:06 1023 30.21 852 25.16 13.4 56 47 2.3 36.1 -88.4 -3.48
02:07 1023 30.21 852 25.16 13.3 56 47 2.2 35.9 -88.4 -3.48
02:08 1023 30.21 852 25.16 13.3 55.9 46 2.1 35.7 -88.4 -3.48
02:09 1023 30.21 852 25.16 13.2 55.8 47 2.2 36 -88.4 -3.48
02:10 1023 30.21 852 25.16 13.2 55.8 46 2 35.7 -88.4 -3.48
02:11 1023 30.21 852 25.16 13.2 55.7 47 2.3 36.2 -88.4 -3.48
02:12 1023 30.21 852 25.16 13 55.4 49 2.5 36.6 -88.4 -3.48
02:13 1023 30.21 852 25.16 12.6 54.6 50 2.5 36.4 -88.4 -3.48
02:14 1023 30.21 852 25.16 12.2 54 52 2.7 36.9 -88.4 -3.48
02:15 1023 30.21 852 25.16 11.9 53.5 52 2.4 36.3 -88.4 -3.48
02:16 1023 30.21 852 25.16 11.9 53.4 51 2.2 36 -88.4 -3.48
02:17 1023 30.21 852 25.16 11.9 53.5 48 1.5 34.6 -88.4 -3.48
02:18 1023 30.21 852 25.16 12.2 53.9 50 2 35.6 -88.4 -3.48
02:19 1023 30.21 852 25.16 12.3 54.1 49 1.8 35.3 -88.4 -3.48
02:20 1023 30.21 852 25.16 12.3 54.2 50 2.4 36.3 -88.4 -3.48
02:21 1023 30.21 852 25.16 12.1 53.8 51 2.4 36.2 -88.4 -3.48
02:22 1023 30.21 852 25.16 11.9 53.5 53 2.6 36.7 -88.4 -3.48
02:23 1023 30.21 852 25.16 11.8 53.2 50 1.7 35.1 -88.4 -3.48
02:24 1023 30.21 852 25.16 11.9 53.4 53 2.7 36.8 -88.4 -3.48
02:25 1023 30.21 852 25.16 11.6 52.9 55 3 37.3 -88.4 -3.48
02:26 1023 30.21 852 25.16 11.3 52.4 56 2.9 37.2 -88.4 -3.48
02:27 1023 30.21 852 25.16 11.1 52.1 56 2.7 36.9 -88.4 -3.48
02:28 1023 30.21 852 25.16 11 51.7 57 2.9 37.2 -88.4 -3.48
02:29 1023 30.21 852 25.16 10.7 51.3 59 3.1 37.5 -88.4 -3.48
02:30 1023 30.21 852 25.16 10.4 50.7 61 3.1 37.7 -88.4 -3.48
02:31 1023 30.21 852 25.16 10.2 50.3 61 3.1 37.6 -88.4 -3.48
02:32 1023 30.21 852 25.16 9.9 49.9 62 3 37.4 -88.4 -3.48
02:33 1023 30.21 852 25.16 9.9 49.8 62 3 37.4 -88.4 -3.48
02:34 1023 30.21 852 25.16 9.9 49.8 62 3.1 37.5 -88.4 -3.48
02:35 1023 30.21 852 25.16 9.9 49.9 62 3 37.5 -88.4 -3.48
02:36 1023 30.21 852 25.16 9.8 49.7 62 3 37.5 -88.5 -3.484
02:37 1023 30.21 852 25.16 9.8 49.6 63 3.1 37.5 -88.5 -3.484
02:38 1023 30.21 852 25.16 9.7 49.4 64 3.2 37.7 -88.5 -3.484
02:39 1023 30.21 853 25.19 9.5 49.1 64 3.1 37.6 -88.5 -3.484
02:40 1023 30.21 853 25.19 9.4 49 64 3 37.5 -88.5 -3.484
02:41 1023 30.21 853 25.19 9.5 49 64 3 37.4 -88.5 -3.484
02:42 1023 30.21 853 25.19 9.5 49.1 64 3 37.3 -88.5 -3.484
02:43 1023 30.21 853 25.19 9.5 49.1 64 3 37.4 -88.5 -3.484
02:44 1023 30.21 853 25.19 9.6 49.2 64 3 37.5 -88.5 -3.484
02:45 1023 30.21 852 25.16 9.5 49.2 64 3.1 37.6 -88.5 -3.484
02:46 1023 30.21 852 25.16 9.5 49.1 64 3 37.4 -88.6 -3.488
02:47 1023 30.21 852 25.16 9.5 49.2 63 2.9 37.3 -88.6 -3.488
02:48 1023 30.21 852 25.16 9.6 49.2 63 2.9 37.1 -88.6 -3.488
02:49 1023 30.21 852 25.16 9.6 49.3 63 2.9 37.2 -88.6 -3.488
02:50 1023 30.21 853 25.19 9.6 49.3 62 2.8 37 -88.6 -3.488
02:51 1023 30.21 853 25.19 9.6 49.3 62 2.8 37 -88.6 -3.488
02:52 1023 30.21 853 25.19 9.7 49.4 61 2.6 36.7 -88.6 -3.488
02:53 1023 30.21 853 25.19 9.8 49.6 61 2.5 36.6 -88.6 -3.488
02:54 1023 30.21 853 25.19 9.9 49.8 60 2.5 36.5 -88.6 -3.488
02:55 1023 30.21 853 25.19 10 49.9 60 2.6 36.6 -88.6 -3.488
02:56 1023 30.21 853 25.19 10 50.1 59 2.5 36.5 -88.7 -3.492
02:57 1023 30.21 853 25.19 10.1 50.3 59 2.4 36.3 -88.7 -3.492
02:58 1023 30.21 853 25.19 10.3 50.5 58 2.4 36.3 -88.7 -3.492
02:59 1023 30.21 853 25.19 10.4 50.7 58 2.6 36.6 -88.7 -3.492
03:00 1023 30.21 853 25.19 10.3 50.6 58 2.6 36.6 -88.7 -3.492
03:01 1023 30.21 853 25.19 10.2 50.4 59 2.7 36.8 -88.7 -3.492
03:02 1023 30.21 853 25.19 10.1 50.3 59 2.6 36.6 -88.7 -3.492
03:03 1023 30.21 853 25.19 10.2 50.3 58 2.4 36.4 -88.7 -3.492
03:04 1023 30.21 853 25.19 10.2 50.3 58 2.4 36.3 -88.7 -3.492
03:05 1023 30.21 853 25.19 10.3 50.5 58 2.3 36.2 -88.7 -3.492
03:06 1023 30.21 853 25.19 10.4 50.7 56 2.1 35.7 -88.8 -3.496
03:07 1023 30.21 853 25.19 10.6 51.1 55 2.1 35.7 -88.8 -3.496
03:08 1023 30.21 853 25.19 10.8 51.4 54 2 35.5 -88.8 -3.496
03:09 1023 30.21 853 25.19 11 51.8 54 2.1 35.8 -88.8 -3.496
03:10 1023 30.21 853 25.19 11 51.9 54 2.2 35.9 -88.8 -3.496
03:11 1023 30.21 853 25.19 11.1 51.9 53 2 35.6 -88.8 -3.496
03:12 1023 30.21 853 25.19 11.1 51.9 53 1.8 35.3 -88.8 -3.496
03:13 1023 30.21 853 25.19 11.2 52.1 53 1.9 35.4 -88.8 -3.496
03:14 1023 30.21 853 25.19 11.2 52.1 53 2 35.6 -88.8 -3.496
03:15 1023 30.21 853 25.19 11.1 52 53 1.9 35.5 -88.8 -3.496
03:16 1023 30.21 853 25.19 11.1 51.9 53 2 35.6 -88.8 -3.496
03:17 1023 30.21 853 25.19 11 51.9 54 2.1 35.7 -88.8 -3.496
03:18 1023 30.21 853 25.19 11 51.8 53 2 35.5 -88.8 -3.496
03:19 1023 30.21 853 25.19 11.1 52 53 1.9 35.5 -88.8 -3.496
03:20 1023 30.21 853 25.19 11.1 52 52 1.7 35.1 -88.8 -3.496
03:21 1023 30.21 853 25.19 11.2 52.2 52 1.8 35.2 -88.8 -3.496
03:22 1023 30.21 853 25.19 11.2 52.2 52 1.8 35.2 -88.8 -3.496
03:23 1023 30.21 853 25.19 11.3 52.3 52 1.8 35.3 -88.8 -3.496
03:24 1024 30.24 853 25.19 11.3 52.3 52 1.7 35.1 -88.8 -3.496
03:25 1024 30.24 853 25.19 11.3 52.3 51 1.7 35 -88.8 -3.496
03:26 1024 30.24 853 25.19 11.4 52.5 50 1.5 34.7 -88.8 -3.496
03:27 1024 30.24 853 25.19 11.5 52.7 50 1.4 34.5 -88.8 -3.496
03:28 1024 30.24 853 25.19 11.7 53.1 49 1.3 34.3 -88.8 -3.496
03:29 1024 30.24 853 25.19 11.9 53.5 48 1.3 34.4 -88.9 -3.5
03:30 1024 30.24 853 25.19 12 53.7 48 1.4 34.5 -88.9 -3.5
03:31 1024 30.24 853 25.19 12.1 53.7 48 1.5 34.6 -88.9 -3.5
03:32 1024 30.24 853 25.19 12 53.5 49 1.6 34.8 -88.9 -3.5
03:33 1024 30.24 853 25.19 11.9 53.5 48 1.2 34.2 -88.9 -3.5
03:34 1024 30.24 853 25.19 12.1 53.8 46 0.8 33.5 -88.9 -3.5
03:35 1024 30.24 853 25.19 12.5 54.4 45 0.8 33.5 -88.9 -3.5
03:36 1024 30.24 853 25.19 12.7 54.8 46 1.3 34.4 -88.9 -3.5
03:37 1024 30.24 853 25.19 12.6 54.6 46 1.4 34.6 -88.9 -3.5
03:38 1024 30.24 853 25.19 12.5 54.5 46 1.3 34.3 -88.9 -3.5
03:39 1024 30.24 853 25.19 12.5 54.6 45 1.1 34 -88.9 -3.5
03:40 1024 30.24 853 25.19 12.6 54.7 45 1.1 34 -88.9 -3.5
03:41 1024 30.24 853 25.19 12.6 54.8 46 1.3 34.3 -88.9 -3.5
03:42 1024 30.24 853 25.19 12.6 54.6 46 1.3 34.3 -88.9 -3.5
03:43 1024 30.24 853 25.19 12.4 54.4 46 1.3 34.4 -88.9 -3.5
03:44 1024 30.24 853 25.19 12.4 54.2 47 1.4 34.5 -88.9 -3.5
03:45 1024 30.24 853 25.19 12.2 54 49 1.8 35.3 -88.9 -3.5
03:46 1024 30.24 853 25.19 11.8 53.2 49 1.5 34.8 -88.9 -3.5
03:47 1024 30.24 853 25.19 11.7 53.1 50 1.6 34.9 -88.9 -3.5
03:48 1024 30.24 853 25.19 11.6 52.9 51 1.8 35.2 -88.9 -3.5
03:49 1024 30.24 853 25.19 11.4 52.5 52 1.8 35.3 -88.9 -3.5
03:50 1024 30.24 853 25.19 11.3 52.3 51 1.5 34.8 -88.9 -3.5
03:51 1024 30.24 853 25.19 11.3 52.4 51 1.5 34.8 -88.9 -3.5
03:52 1024 30.24 853 25.19 11.3 52.4 51 1.7 35.1 -88.9 -3.5
03:53 1024 30.24 853 25.19 11.2 52.2 52 1.9 35.4 -88.9 -3.5
03:54 1024 30.24 853 25.19 11 51.7 52 1.6 34.9 -88.9 -3.5
03:55 1024 30.24 853 25.19 11 51.9 52 1.6 34.8 -88.9 -3.5
03:56 1024 30.24 853 25.19 11.2 52.1 51 1.3 34.4 -88.9 -3.5
03:57 1024 30.24 853 25.19 11.3 52.4 51 1.5 34.7 -88.9 -3.5
03:58 1024 30.24 853 25.19 11.4 52.4 50 1.5 34.6 -88.9 -3.5
03:59 1024 30.24 853 25.19 11.4 52.4 50 1.3 34.3 -88.9 -3.5
04:00 1024 30.24 853 25.19 11.5 52.7 49 1.2 34.1 -88.9 -3.5
04:01 1024 30.24 853 25.19 11.7 53 49 1.3 34.3 -88.9 -3.5
04:02 1024 30.24 853 25.19 11.7 53.1 49 1.4 34.5 -88.9 -3.5
04:03 1024 30.24 853 25.19 11.7 53.1 49 1.4 34.5 -88.9 -3.5
04:04 1024 30.24 853 25.19 11.7 53.1 47 0.9 33.7 -88.9 -3.5
04:05 1024 30.24 853 25.19 12 53.6 45 0.6 33.1 -89 -3.504
04:06 1024 30.24 853 25.19 12.4 54.3 45 0.9 33.6 -89 -3.504
04:07 1024 30.24 853 25.19 12.6 54.7 44 0.7 33.3 -89 -3.504
04:08 1024 30.24 853 25.19 12.8 55 44 0.8 33.4 -89 -3.504
04:09 1024 30.24 853 25.19 12.9 55.2 43 0.6 33.1 -89 -3.504
04:10 1024 30.24 853 25.19 13.1 55.5 42 0.5 33 -89 -3.504
04:11 1024 30.24 853 25.19 13.2 55.7 43 1 33.8 -89 -3.504
04:12 1024 30.24 853 25.19 13 55.4 44 1 33.8 -89 -3.504
04:13 1024 30.24 853 25.19 12.8 55 45 1.2 34.2 -89 -3.504
04:14 1024 30.24 853 25.19 12.5 54.6 45 1 33.8 -89 -3.504
04:15 1024 30.24 853 25.19 12.5 54.5 46 1.3 34.3 -89 -3.504
04:16 1024 30.24 853 25.19 12.3 54.1 48 1.6 35 -89 -3.504
04:17 1024 30.24 853 25.19 11.9 53.4 50 1.9 35.4 -89 -3.504
04:18 1024 30.24 853 25.19 11.5 52.7 52 2 35.6 -89 -3.504
04:19 1024 30.24 853 25.19 11.1 52 54 2.1 35.9 -89 -3.504
04:20 1024 30.24 853 25.19 10.8 51.4 54 1.9 35.4 -89 -3.504
04:21 1024 30.24 853 25.19 10.6 51 55 1.9 35.4 -89 -3.504
04:22 1024 30.24 853 25.19 10.5 50.9 54 1.6 34.9 -89 -3.504
04:23 1024 30.24 853 25.19 10.5 51 54 1.8 35.2 -89 -3.504
04:24 1024 30.24 853 25.19 10.5 50.9 55 1.8 35.3 -89 -3.504
04:25 1024 30.24 853 25.19 10.4 50.8 55 1.7 35 -89 -3.504
04:26 1024 30.24 853 25.19 10.4 50.8 55 1.8 35.2 -89 -3.504
04:27 1024 30.24 853 25.19 10.4 50.7 55 1.7 35.1 -89 -3.504
04:28 1024 30.24 853 25.19 10.4 50.7 55 1.7 35.1 -89 -3.504
04:29 1024 30.24 853 25.19 10.5 50.8 55 1.8 35.2 -89 -3.504
04:30 1024 30.24 853 25.19 10.5 50.9 54 1.7 35.1 -89 -3.504
04:31 1024 30.24 853 25.19 10.5 50.8 54 1.7 35 -89 -3.504
04:32 1024 30.24 853 25.19 10.5 50.9 53 1.4 34.6 -89 -3.504
04:33 1024 30.24 853 25.19 10.7 51.3 53 1.6 34.8 -89 -3.504
04:34 1024 30.24 853 25.19 10.8 51.4 53 1.7 35 -89 -3.504
04:35 1024 30.24 853 25.19 10.7 51.2 54 1.8 35.3 -89 -3.504
04:36 1024 30.24 853 25.19 10.5 50.8 55 1.8 35.3 -89 -3.504
04:37 1024 30.24 853 25.19 10.4 50.8 54 1.5 34.7 -89 -3.504
04:38 1024 30.24 853 25.19 10.6 51.1 53 1.5 34.8 -89.1 -3.508
04:39 1024 30.24 853 25.19 10.8 51.5 53 1.6 34.9 -89.1 -3.508
04:40 1024 30.24 853 25.19 10.9 51.6 53 1.8 35.2 -89.1 -3.508
04:41 1024 30.24 853 25.19 10.9 51.5 54 2 35.5 -89.1 -3.508
04:42 1024 30.24 853 25.19 10.7 51.2 56 2.3 36.1 -89.1 -3.508
04:43 1024 30.24 853 25.19 10.4 50.8 57 2.2 36 -89.1 -3.508
04:44 1024 30.24 853 25.19 10.2 50.4 57 2.2 36 -89.1 -3.508
04:45 1024 30.24 853 25.19 10.1 50.2 58 2.2 36 -89.1 -3.508
04:46 1024 30.24 853 25.19 10.1 50.1 58 2.1 35.8 -89.1 -3.508
04:47 1024 30.24 853 25.19 10.1 50.1 58 2.1 35.8 -89.1 -3.508
04:48 1024 30.24 853 25.19 10 50 57 1.9 35.4 -89.1 -3.508
04:49 1024 30.24 853 25.19 10 50.1 57 2 35.7 -89.1 -3.508
04:50 1024 30.24 853 25.19 10 50.1 58 2.2 35.9 -89.1 -3.508
04:51 1024 30.24 853 25.19 10 49.9 58 2.1 35.8 -89.1 -3.508
04:52 1024 30.24 853 25.19 9.9 49.8 60 2.5 36.5 -89.1 -3.508
04:53 1024 30.24 853 25.19 9.7 49.4 62 2.8 37 -89.1 -3.508
04:54 1024 30.24 853 25.19 9.4 48.8 63 2.8 37.1 -89.1 -3.508
04:55 1024 30.24 853 25.19 9.1 48.5 64 2.8 37 -89.1 -3.508
04:56 1024 30.24 853 25.19 9 48.2 64 2.7 36.8 -89.1 -3.508
04:57 1024 30.24 853 25.19 8.9 48.1 64 2.5 36.5 -89.1 -3.508
04:58 1024 30.24 853 25.19 8.9 48.1 65 2.7 36.9 -89.1 -3.508
04:59 1024 30.24 853 25.19 8.8 47.9 65 2.7 36.8 -89.1 -3.508
05:00 1024 30.24 853 25.19 8.7 47.7 65 2.4 36.4 -89.1 -3.508
05:01 1024 30.24 853 25.19 8.7 47.7 65 2.6 36.6 -89.1 -3.508
05:02 1024 30.24 853 25.19 8.7 47.7 65 2.6 36.7 -89.2 -3.512
05:03 1024 30.24 853 25.19 8.7 47.6 65 2.6 36.6 -89.2 -3.512
05:04 1024 30.24 853 25.19 8.6 47.5 65 2.5 36.4 -89.2 -3.512
05:05 1024 30.24 853 25.19 8.6 47.5 65 2.4 36.4 -89.2 -3.512
05:06 1024 30.24 853 25.19 8.5 47.4 66 2.6 36.8 -89.2 -3.512
05:07 1024 30.24 853 25.19 8.3 46.9 67 2.6 36.7 -89.2 -3.512
05:08 1024 30.24 853 25.19 8.1 46.5 68 2.6 36.6 -89.2 -3.512
05:09 1024 30.24 853 25.19 8 46.3 69 2.6 36.7 -89.2 -3.512
05:10 1024 30.24 854 25.22 7.8 46.1 69 2.6 36.7 -89.2 -3.512
05:11 1024 30.24 854 25.22 7.8 46.1 69 2.6 36.7 -89.2 -3.512
05:12 1024 30.24 854 25.22 7.8 46.1 69 2.6 36.6 -89.2 -3.512
05:13 1024 30.24 854 25.22 7.8 46.1 69 2.6 36.6 -89.2 -3.512
05:14 1024 30.24 854 25.22 7.9 46.2 69 2.5 36.6 -89.2 -3.512
05:15 1024 30.24 854 25.22 7.9 46.3 68 2.5 36.5 -89.3 -3.516
05:16 1024 30.24 854 25.22 8 46.4 68 2.5 36.6 -89.3 -3.516
05:17 1024 30.24 854 25.22 8 46.4 68 2.5 36.5 -89.3 -3.516
05:18 1024 30.24 854 25.22 8.1 46.5 68 2.6 36.7 -89.3 -3.516
05:19 1024 30.24 854 25.22 8 46.5 69 2.6 36.7 -89.3 -3.516
05:20 1024 30.24 854 25.22 8 46.3 68 2.5 36.5 -89.3 -3.516
05:21 1024 30.24 854 25.22 8 46.4 68 2.5 36.6 -89.3 -3.516
05:22 1024 30.24 854 25.22 8 46.4 68 2.5 36.4 -89.3 -3.516
05:23 1024 30.24 854 25.22 8 46.4 68 2.5 36.5 -89.3 -3.516
05:24 1024 30.24 854 25.22 7.9 46.2 69 2.6 36.7 -89.3 -3.516
05:25 1024 30.24 854 25.22 7.8 46 69 2.5 36.5 -89.3 -3.516
05:26 1024 30.24 854 25.22 7.7 45.8 70 2.6 36.6 -89.3 -3.516
05:27 1024 30.24 854 25.22 7.6 45.6 70 2.5 36.5 -89.3 -3.516
05:28 1024 30.24 854 25.22 7.5 45.4 70 2.5 36.4 -89.3 -3.516
05:29 1024 30.24 854 25.22 7.5 45.5 71 2.5 36.5 -89.3 -3.516
05:30 1024 30.24 854 25.22 7.4 45.4 71 2.5 36.6 -89.3 -3.516
05:31 1024 30.24 854 25.22 7.4 45.2 72 2.6 36.6 -89.3 -3.516
05:32 1024 30.24 854 25.22 7.3 45.1 72 2.5 36.5 -89.4 -3.52
05:33 1024 30.24 854 25.22 7.1 44.8 72 2.5 36.5 -89.4 -3.52
05:34 1025 30.27 854 25.22 7 44.6 74 2.6 36.8 -89.3 -3.516
05:35 1024 30.24 854 25.22 6.9 44.3 75 2.7 36.8 -89.3 -3.516
05:36 1025 30.27 854 25.22 6.7 44.1 75 2.6 36.6 -89.3 -3.516
05:37 1025 30.27 854 25.22 6.7 44 75 2.6 36.6 -89.3 -3.516
05:38 1025 30.27 854 25.22 6.7 44 74 2.3 36.2 -89.3 -3.516
05:39 1025 30.27 854 25.22 6.8 44.3 72 2.2 36 -89.3 -3.516
05:40 1025 30.27 854 25.22 7.1 44.8 71 2.1 35.9 -89.3 -3.516
05:41 1025 30.27 854 25.22 7.4 45.2 70 2.2 36 -89.4 -3.52
05:42 1025 30.27 854 25.22 7.5 45.5 69 2.2 36 -89.4 -3.52
05:43 1025 30.27 854 25.22 7.7 45.9 67 2.1 35.7 -89.4 -3.52
05:44 1025 30.27 854 25.22 8.1 46.6 64 1.8 35.3 -89.4 -3.52
05:45 1025 30.27 854 25.22 8.5 47.3 63 2 35.6 -89.4 -3.52
05:46 1025 30.27 854 25.22 8.6 47.4 64 2.2 36 -89.5 -3.524
05:47 1025 30.27 854 25.22 8.4 47.2 65 2.3 36.2 -89.5 -3.524
05:48 1025 30.27 854 25.22 8.2 46.8 66 2.3 36.2 -89.5 -3.524
05:49 1025 30.27 854 25.22 8.1 46.5 67 2.4 36.3 -89.5 -3.524
05:50 1025 30.27 854 25.22 7.8 46.1 68 2.3 36.2 -89.5 -3.524
05:51 1025 30.27 854 25.22 7.7 45.9 68 2.2 36 -89.5 -3.524
05:52 1025 30.27 854 25.22 7.6 45.7 69 2.3 36.1 -89.5 -3.524
05:53 1025 30.27 854 25.22 7.6 45.6 68 2.1 35.8 -89.5 -3.524
05:54 1025 30.27 854 25.22 7.8 46 67 2.1 35.7 -89.5 -3.524
05:55 1025 30.27 854 25.22 7.8 46.1 67 2.1 35.9 -89.5 -3.524
05:56 1025 30.27 854 25.22 7.9 46.1 66 1.9 35.5 -89.5 -3.524
05:57 1025 30.27 854 25.22 8.1 46.6 63 1.5 34.7 -89.5 -3.524
05:58 1025 30.27 854 25.22 8.5 47.3 63 1.8 35.3 -89.5 -3.524
05:59 1025 30.27 854 25.22 8.6 47.4 63 1.9 35.5 -89.5 -3.524
06:00 1025 30.27 854 25.22 8.7 47.6 62 1.8 35.3 -89.6 -3.528
06:01 1025 30.27 854 25.22 8.7 47.7 62 1.9 35.4 -89.6 -3.528
06:02 1025 30.27 854 25.22 8.8 47.8 62 1.8 35.3 -89.6 -3.528
06:03 1025 30.27 854 25.22 8.8 47.9 62 1.9 35.4 -89.6 -3.528
06:04 1025 30.27 854 25.22 8.8 47.9 62 1.9 35.4 -89.6 -3.528
06:05 1025 30.27 854 25.22 8.8 47.9 62 2 35.6 -89.6 -3.528
06:06 1025 30.27 854 25.22 8.7 47.6 63 2.1 35.8 -89.6 -3.528
06:07 1025 30.27 854 25.22 8.4 47 65 2.2 35.9 -89.7 -3.531
06:08 1025 30.27 854 25.22 8 46.5 67 2.2 36 -89.7 -3.531
06:09 1025 30.27 854 25.22 7.7 45.9 68 2.2 36 -89.7 -3.531
06:10 1025 30.27 854 25.22 7.5 45.5 69 2.1 35.8 -89.7 -3.531
06:11 1025 30.27 854 25.22 7.4 45.4 68 1.9 35.3 -89.7 -3.531
06:12 1025 30.27 854 25.22 7.7 45.8 66 1.7 35 -89.7 -3.531
06:13 1025 30.27 854 25.22 8 46.4 64 1.6 34.9 -89.7 -3.531
06:14 1025 30.27 854 25.22 8.2 46.8 62 1.5 34.7 -89.7 -3.531
06:15 1025 30.27 854 25.22 8.6 47.4 61 1.6 34.9 -89.7 -3.531
06:16 1025 30.27 854 25.22 8.9 47.9 61 1.9 35.4 -89.7 -3.531
06:17 1025 30.27 854 25.22 9 48.3 61 1.9 35.4 -89.7 -3.531
06:18 1025 30.27 854 25.22 9.2 48.5 61 2 35.7 -89.7 -3.531
06:19 1025 30.27 854 25.22 9.1 48.3 61 2 35.7 -89.8 -3.535
06:20 1025 30.27 854 25.22 9 48.2 62 2.1 35.8 -89.8 -3.535
06:21 1025 30.27 854 25.22 9 48.2 62 2.1 35.7 -89.8 -3.535
06:22 1025 30.27 854 25.22 9 48.2 61 2 35.6 -89.8 -3.535
06:23 1025 30.27 854 25.22 9 48.2 62 2.1 35.7 -89.8 -3.535
06:24 1025 30.27 854 25.22 9 48.2 61 2 35.6 -89.8 -3.535
06:25 1025 30.27 854 25.22 9.1 48.3 62 2.1 35.7 -89.8 -3.535
06:26 1025 30.27 854 25.22 9.2 48.5 60 1.8 35.3 -89.8 -3.535
06:27 1025 30.27 854 25.22 9.4 49 59 1.9 35.3 -89.8 -3.535
06:28 1025 30.27 854 25.22 9.7 49.4 59 2.2 35.9 -89.8 -3.535
06:29 1025 30.27 854 25.22 9.8 49.7 58 2.1 35.7 -89.8 -3.535
06:30 1025 30.27 854 25.22 9.9 49.9 59 2.3 36.2 -89.8 -3.535
06:31 1025 30.27 854 25.22 9.9 49.8 59 2.4 36.4 -89.8 -3.535
06:32 1025 30.27 854 25.22 9.9 49.7 61 2.7 36.8 -89.8 -3.535
06:33 1025 30.27 854 25.22 9.7 49.5 61 2.6 36.7 -89.8 -3.535
06:34 1025 30.27 854 25.22 9.8 49.6 58 2 35.6 -89.8 -3.535
06:35 1025 30.27 854 25.22 10.1 50.2 58 2.2 36 -89.8 -3.535
06:36 1025 30.27 854 25.22 10.4 50.7 57 2.3 36.1 -89.8 -3.535
06:37 1025 30.27 854 25.22 10.6 51.1 56 2.2 36 -89.8 -3.535
06:38 1025 30.27 854 25.22 10.7 51.3 55 2.1 35.8 -89.8 -3.535
06:39 1025 30.27 854 25.22 10.8 51.4 56 2.5 36.5 -89.8 -3.535
06:40 1025 30.27 854 25.22 10.7 51.2 57 2.6 36.7 -89.7 -3.531
06:41 1025 30.27 854 25.22 10.4 50.8 59 2.8 37 -89.7 -3.531
06:42 1025 30.27 854 25.22 10.3 50.5 59 2.8 37 -89.7 -3.531
06:43 1025 30.27 854 25.22 10.2 50.3 60 2.7 36.8 -89.7 -3.531
06:44 1025 30.27 854 25.22 10.1 50.1 61 3 37.3 -89.7 -3.531
06:45 1025 30.27 854 25.22 9.9 49.9 61 2.9 37.2 -89.7 -3.531
06:46 1025 30.27 854 25.22 9.9 49.9 61 2.8 37.1 -89.7 -3.531
06:47 1025 30.27 854 25.22 10 49.9 62 3 37.5 -89.7 -3.531
06:48 1025 30.27 854 25.22 10 49.9 61 2.8 37.1 -89.7 -3.531
06:49 1025 30.27 854 25.22 10.1 50.1 60 2.7 36.9 -89.7 -3.531
06:50 1025 30.27 854 25.22 10.2 50.3 60 2.7 36.9 -89.6 -3.528
06:51 1025 30.27 854 25.22 10.3 50.5 60 2.8 37.1 -89.6 -3.528
06:52 1025 30.27 854 25.22 10.4 50.8 59 2.9 37.2 -89.6 -3.528
06:53 1025 30.27 854 25.22 10.6 51 56 2.3 36.2 -89.6 -3.528
06:54 1025 30.27 854 25.22 10.8 51.5 57 2.8 37 -89.6 -3.528
06:55 1025 30.27 854 25.22 11 51.8 57 2.9 37.3 -89.6 -3.528
06:56 1025 30.27 854 25.22 11.1 51.9 56 2.6 36.7 -89.6 -3.528
06:57 1025 30.27 854 25.22 11.2 52.2 56 2.9 37.2 -89.6 -3.528
06:58 1025 30.27 854 25.22 11.3 52.4 55 2.7 36.8 -89.6 -3.528
06:59 1025 30.27 854 25.22 11.4 52.6 54 2.5 36.6 -89.6 -3.528
07:00 1025 30.27 854 25.22 11.6 52.9 55 2.9 37.3 -89.6 -3.528
07:01 1025 30.27 854 25.22 11.7 53 55 3 37.4 -89.6 -3.528
07:02 1025 30.27 854 25.22 11.8 53.2 54 2.8 37.1 -89.6 -3.528
07:03 1025 30.27 854 25.22 11.8 53.2 56 3.4 38.1 -89.6 -3.528
07:04 1025 30.27 854 25.22 11.8 53.3 55 3.1 37.6 -89.5 -3.524
07:05 1025 30.27 854 25.22 11.9 53.4 55 3.2 37.8 -89.5 -3.524
07:06 1025 30.27 854 25.22 11.9 53.5 52 2.6 36.6 -89.5 -3.524
07:07 1025 30.27 854 25.22 12.1 53.7 54 3.1 37.5 -89.5 -3.524
07:08 1025 30.27 854 25.22 12.2 54 55 3.4 38.1 -89.5 -3.524
07:09 1025 30.27 854 25.22 12.3 54.1 53 3.1 37.5 -89.5 -3.524
07:10 1025 30.27 854 25.22 12.4 54.4 53 3.2 37.7 -89.5 -3.524
07:11 1025 30.27 854 25.22 12.5 54.4 51 2.7 36.9 -89.4 -3.52
07:12 1025 30.27 854 25.22 12.6 54.6 50 2.6 36.7 -89.4 -3.52
07:13 1025 30.27 854 25.22 12.8 55 50 2.6 36.6 -89.4 -3.52
07:14 1025 30.27 854 25.22 12.9 55.2 51 3.2 37.7 -89.4 -3.52
07:15 1025 30.27 854 25.22 13 55.3 53 3.6 38.4 -89.4 -3.52
07:16 1025 30.27 854 25.22 12.9 55.3 50 2.8 37.1 -89.4 -3.52
07:17 1025 30.27 854 25.22 13 55.3 50 2.9 37.3 -89.3 -3.516
07:18 1025 30.27 854 25.22 13.1 55.6 52 3.5 38.3 -89.3 -3.516
07:19 1025 30.27 854 25.22 13.2 55.7 51 3.4 38.1 -89.3 -3.516
07:20 1025 30.27 854 25.22 13.2 55.7 52 3.6 38.5 -89.3 -3.516
07:21 1025 30.27 854 25.22 13.3 55.9 51 3.4 38.1 -89.3 -3.516
07:22 1025 30.27 854 25.22 13.3 56 49 3 37.4 -89.3 -3.516
07:23 1025 30.27 854 25.22 13.4 56.1 48 2.8 37 -89.3 -3.516
07:24 1025 30.27 854 25.22 13.5 56.3 50 3.5 38.3 -89.3 -3.516
07:25 1025 30.27 854 25.22 13.6 56.5 50 3.4 38.2 -89.2 -3.512
07:26 1025 30.27 854 25.22 13.6 56.5 52 4 39.1 -89.2 -3.512
07:27 1025 30.27 854 25.22 13.7 56.7 50 3.4 38.2 -89.2 -3.512
07:28 1025 30.27 854 25.22 13.8 56.8 50 3.6 38.5 -89.2 -3.512
07:29 1025 30.27 854 25.22 13.9 57 52 4.3 39.7 -89.2 -3.512
07:30 1025 30.27 854 25.22 14 57.1 48 3.3 37.9 -89.2 -3.512
07:31 1025 30.27 854 25.22 14.1 57.4 49 3.8 38.8 -89.1 -3.508
07:32 1025 30.27 854 25.22 14.3 57.7 50 4 39.2 -89.1 -3.508
07:33 1025 30.27 854 25.22 14.4 57.9 51 4.5 40.1 -89.1 -3.508
07:34 1025 30.27 854 25.22 14.5 58.1 53 5.1 41.2 -89.1 -3.508
07:35 1025 30.27 854 25.22 14.5 58.2 53 5.1 41.2 -89.1 -3.508
07:36 1025 30.27 854 25.22 14.6 58.3 56 6 42.9 -89 -3.504
07:37 1025 30.27 854 25.22 14.6 58.4 55 5.9 42.6 -89 -3.504
07:38 1025 30.27 854 25.22 14.6 58.3 52 5 41.1 -89 -3.504
07:39 1025 30.27 854 25.22 14.6 58.3 57 6.3 43.4 -89 -3.504
07:40 1025 30.27 854 25.22 14.6 58.2 53 5.3 41.5 -88.9 -3.5
07:41 1025 30.27 854 25.22 14.6 58.2 52 5 41 -88.9 -3.5
07:42 1025 30.27 854 25.22 14.5 58.2 53 5.2 41.4 -88.9 -3.5
07:43 1025 30.27 854 25.22 14.4 57.9 55 5.5 41.8 -88.9 -3.5
07:44 1025 30.27 854 25.22 14.3 57.7 57 6 42.8 -88.9 -3.5
07:45 1025 30.27 854 25.22 14.2 57.5 56 5.6 42 -88.9 -3.5
07:46 1025 30.27 854 25.22 14.2 57.5 58 6 42.8 -88.9 -3.5
07:47 1025 30.27 854 25.22 14.2 57.5 58 6.1 43 -88.8 -3.496
07:48 1025 30.27 854 25.22 14.2 57.5 57 5.8 42.5 -88.8 -3.496
07:49 1025 30.27 854 25.22 14.1 57.4 58 6 42.8 -88.8 -3.496
07:50 1025 30.27 854 25.22 14.1 57.4 58 5.9 42.7 -88.8 -3.496
07:51 1025 30.27 854 25.22 14.1 57.5 57 5.9 42.7 -88.8 -3.496
07:52 1025 30.27 854 25.22 14.2 57.6 54 5 41 -88.8 -3.496
07:53 1025 30.27 854 25.22 14.4 57.9 56 5.8 42.5 -88.7 -3.492
07:54 1025 30.27 854 25.22 14.5 58.1 56 5.9 42.6 -88.7 -3.492
07:55 1025 30.27 854 25.22 14.6 58.3 61 7.3 45.2 -88.7 -3.492
07:56 1025 30.27 854 25.22 14.8 58.7 60 7.2 45 -88.7 -3.492
07:57 1025 30.27 854 25.22 14.9 58.9 58 6.9 44.5 -88.7 -3.492
07:58 1025 30.27 854 25.22 15.1 59.1 55 6.1 42.9 -88.6 -3.488
07:59 1025 30.27 854 25.22 15.1 59.2 55 6.3 43.3 -88.6 -3.488
08:00 1025 30.27 854 25.22 15.3 59.5 51 5.3 41.5 -88.6 -3.488
08:01 1025 30.27 854 25.22 15.4 59.6 54 6.2 43.1 -88.6 -3.488
08:02 1025 30.27 854 25.22 15.4 59.8 53 5.9 42.7 -88.6 -3.488
08:03 1025 30.27 854 25.22 15.5 59.9 54 6.3 43.4 -88.5 -3.484
08:04 1025 30.27 854 25.22 15.7 60.3 59 7.7 45.9 -88.5 -3.484
08:05 1025 30.27 854 25.22 15.9 60.5 48 5 41 -88.5 -3.484
08:06 1025 30.27 854 25.22 16 60.7 47 4.6 40.4 -88.5 -3.484
08:07 1025 30.27 854 25.22 16.1 60.9 47 4.9 40.8 -88.5 -3.484
08:08 1025 30.27 854 25.22 16.2 61.1 47 5 40.9 -88.4 -3.48
08:09 1025 30.27 854 25.22 16.3 61.3 46 4.9 40.8 -88.4 -3.48
08:10 1025 30.27 854 25.22 16.4 61.4 48 5.5 42 -88.4 -3.48
08:11 1025 30.27 854 25.22 16.5 61.7 44 4.5 40 -88.4 -3.48
08:12 1025 30.27 854 25.22 16.7 62 48 5.7 42.2 -88.4 -3.48
08:13 1025 30.27 854 25.22 16.8 62.2 46 5.3 41.6 -88.3 -3.476
08:14 1025 30.27 854 25.22 16.9 62.3 43 4.3 39.8 -88.3 -3.476
08:15 1025 30.27 854 25.22 17 62.5 41 3.8 38.8 -88.3 -3.476
08:16 1025 30.27 854 25.22 17 62.6 47 5.7 42.3 -88.3 -3.476
08:17 1025 30.27 854 25.22 17.1 62.7 47 5.6 42.1 -88.2 -3.472
08:18 1025 30.27 854 25.22 17.2 62.9 46 5.4 41.8 -88.2 -3.472
08:19 1025 30.27 854 25.22 17.2 62.9 43 4.6 40.3 -88.2 -3.472
08:20 1025 30.27 854 25.22 17.1 62.7 45 5 41 -88.2 -3.472
08:21 1025 30.27 854 25.22 17 62.6 43 4.4 39.8 -88.1 -3.469
08:22 1025 30.27 854 25.22 17 62.5 48 5.9 42.6 -88.1 -3.469
08:23 1025 30.27 854 25.22 17 62.6 46 5.4 41.7 -88.1 -3.469
08:24 1025 30.27 854 25.22 17 62.6 44 4.9 40.8 -88.1 -3.469
08:25 1025 30.27 854 25.22 17.1 62.7 45 5.1 41.2 -88 -3.465
08:26 1025 30.27 854 25.22 17.1 62.8 42 4.1 39.4 -88 -3.465
08:27 1025 30.27 854 25.22 17.2 62.9 46 5.7 42.2 -88 -3.465
08:28 1025 30.27 854 25.22 17.2 63 45 5.3 41.6 -87.9 -3.461
08:29 1025 30.27 854 25.22 17.3 63.1 40 3.5 38.3 -87.9 -3.461
08:30 1025 30.27 854 25.22 17.3 63.1 48 6.3 43.4 -87.9 -3.461
08:31 1025 30.27 854 25.22 17.4 63.3 47 6.1 42.9 -87.9 -3.461
08:32 1025 30.27 854 25.22 17.5 63.4 41 4.1 39.4 -87.8 -3.457
08:33 1025 30.27 854 25.22 17.5 63.6 45 5.5 41.9 -87.8 -3.457
08:34 1025 30.27 854 25.22 17.5 63.5 45 5.6 42.2 -87.8 -3.457
08:35 1025 30.27 854 25.22 17.5 63.6 43 5 41 -87.7 -3.453
08:36 1025 30.27 854 25.22 17.6 63.6 43 4.9 40.8 -87.7 -3.453
08:37 1025 30.27 854 25.22 17.6 63.8 46 6.1 43 -87.7 -3.453
08:38 1025 30.27 854 25.22 17.7 63.9 45 5.8 42.5 -87.7 -3.453
08:39 1025 30.27 854 25.22 17.8 64.1 45 6 42.8 -87.6 -3.449
08:40 1025 30.27 854 25.22 17.9 64.1 42 5 41 -87.6 -3.449
08:41 1025 30.27 854 25.22 17.9 64.3 43 5.4 41.6 -87.6 -3.449
08:42 1025 30.27 854 25.22 18.1 64.5 45 6.2 43.2 -87.5 -3.445
08:43 1025 30.27 854 25.22 18.2 64.7 38 3.8 38.8 -87.5 -3.445
08:44 1025 30.27 854 25.22 18.2 64.8 45 6.1 43 -87.5 -3.445
08:45 1025 30.27 854 25.22 18.3 65 44 5.9 42.7 -87.4 -3.441
08:46 1025 30.27 854 25.22 18.4 65.1 42 5.4 41.8 -87.4 -3.441
08:47 1025 30.27 854 25.22 18.5 65.3 41 5.2 41.3 -87.4 -3.441
08:48 1025 30.27 854 25.22 18.5 65.3 42 5.7 42.2 -87.3 -3.437
08:49 1025 30.27 854 25.22 18.6 65.4 44 6.3 43.3 -87.3 -3.437
08:50 1025 30.27 854 25.22 18.6 65.6 45 6.7 44.1 -87.3 -3.437
08:51 1025 30.27 854 25.22 18.7 65.7 42 5.7 42.3 -87.2 -3.433
08:52 1025 30.27 854 25.22 18.8 65.8 41 5.4 41.7 -87.2 -3.433
08:53 1025 30.27 854 25.22 18.9 66 41 5.3 41.6 -87.2 -3.433
08:54 1025 30.27 854 25.22 18.9 66 38 4.4 39.9 -87.1 -3.429
08:55 1025 30.27 854 25.22 18.9 66.1 38 4.6 40.3 -87.1 -3.429
08:56 1025 30.27 854 25.22 19 66.2 43 6.4 43.6 -87 -3.425
08:57 1025 30.27 854 25.22 19.2 66.5 38 4.7 40.5 -87 -3.425
08:58 1025 30.27 854 25.22 19.3 66.7 45 7.3 45.2 -87 -3.425
08:59 1025 30.27 854 25.22 19.4 67 46 7.6 45.7 -86.9 -3.421
09:00 1025 30.27 854 25.22 19.5 67 37 4.7 40.4 -86.9 -3.421
09:01 1025 30.27 854 25.22 19.5 67.1 43 6.8 44.3 -86.8 -3.417
09:02 1025 30.27 854 25.22 19.6 67.2 36 4.3 39.7 -86.8 -3.417
09:03 1025 30.27 854 25.22 19.6 67.2 43 6.7 44.1 -86.8 -3.417
09:04 1025 30.27 854 25.22 19.7 67.4 37 4.8 40.6 -86.8 -3.417
09:05 1025 30.27 854 25.22 19.8 67.6 40 6 42.9 -86.7 -3.413
09:06 1025 30.27 854 25.22 19.8 67.6 35 4.1 39.3 -86.7 -3.413
09:07 1025 30.27 854 25.22 19.9 67.8 41 6.3 43.3 -86.6 -3.409
09:08 1025 30.27 854 25.22 20 68 30 2.1 35.8 -86.6 -3.409
09:09 1025 30.27 854 25.22 20 68.1 35 4.2 39.5 -86.6 -3.409
09:10 1025 30.27 854 25.22 20.1 68.2 38 5.4 41.8 -86.5 -3.406
09:11 1025 30.27 854 25.22 20.2 68.4 33 3.8 38.8 -86.5 -3.406
09:12 1025 30.27 854 25.22 20.4 68.6 34 4.3 39.7 -86.4 -3.402
09:13 1025 30.27 854 25.22 20.5 68.9 33 3.7 38.6 -86.4 -3.402
09:14 1025 30.27 854 25.22 20.6 69.2 26 0.7 33.3 -86.3 -3.398
09:15 1025 30.27 854 25.22 20.7 69.3 32 3.7 38.6 -86.3 -3.398
09:16 1025 30.27 854 25.22 20.8 69.4 29 2.1 35.7 -86.2 -3.394
09:17 1025 30.27 854 25.22 20.9 69.6 31 3.3 38 -86.2 -3.394
09:18 1025 30.27 854 25.22 20.9 69.6 31 3.4 38 -86.1 -3.39
09:19 1025 30.27 854 25.22 20.9 69.6 26 0.8 33.4 -86.1 -3.39
09:20 1025 30.27 854 25.22 20.8 69.4 31 3.4 38.1 -86 -3.386
09:21 1025 30.27 854 25.22 20.8 69.4 34 4.3 39.8 -86 -3.386
09:22 1025 30.27 854 25.22 20.7 69.3 29 2.3 36.2 -85.9 -3.382
09:23 1025 30.27 854 25.22 20.7 69.2 30 2.7 36.8 -85.9 -3.382
09:24 1025 30.27 854 25.22 20.6 69.1 32 3.6 38.4 -85.8 -3.378
09:25 1025 30.27 855 25.25 20.6 69 29 2.3 36.1 -85.8 -3.378
09:26 1025 30.27 854 25.22 20.6 69 37 5.5 41.8 -85.7 -3.374
09:27 1025 30.27 855 25.25 20.7 69.2 33 4.1 39.4 -85.6 -3.37
09:28 1025 30.27 855 25.25 20.8 69.4 35 4.8 40.7 -85.6 -3.37
09:29 1025 30.27 855 25.25 20.8 69.4 35 4.7 40.5 -85.5 -3.366
09:30 1025 30.27 855 25.25 20.7 69.3 32 3.8 38.8 -85.5 -3.366
09:31 1025 30.27 855 25.25 20.7 69.3 34 4.6 40.2 -85.4 -3.362
09:32 1025 30.27 855 25.25 20.8 69.4 31 3 37.5 -85.4 -3.362
09:33 1025 30.27 855 25.25 20.8 69.5 31 3 37.5 -85.3 -3.358
09:34 1025 30.27 855 25.25 20.9 69.6 31 3.2 37.7 -85.2 -3.354
09:35 1025 30.27 855 25.25 21 69.9 31 3.4 38.1 -85.2 -3.354
09:36 1025 30.27 855 25.25 21.2 70.2 32 4.1 39.3 -85.1 -3.35
09:37 1025 30.27 854 25.22 21.3 70.3 30 3.4 38 -85.1 -3.35
09:38 1025 30.27 854 25.22 21.4 70.6 30 3.1 37.6 -85 -3.346
09:39 1025 30.27 854 25.22 21.4 70.5 33 4.8 40.7 -85 -3.346
09:40 1025 30.27 854 25.22 21.3 70.4 33 4.4 39.9 -84.9 -3.343
09:41 1025 30.27 854 25.22 21.3 70.4 35 5.5 41.8 -84.8 -3.339
09:42 1025 30.27 854 25.22 21.3 70.4 32 4.2 39.6 -84.8 -3.339
09:43 1025 30.27 854 25.22 21.4 70.5 32 4.1 39.4 -84.7 -3.335
09:44 1025 30.27 854 25.22 21.3 70.4 34 4.9 40.8 -84.6 -3.331
09:45 1025 30.27 854 25.22 21.4 70.5 34 4.9 40.8 -84.6 -3.331
09:46 1025 30.27 854 25.22 21.4 70.4 35 5.7 42.2 -84.5 -3.327
09:47 1025 30.27 854 25.22 21.6 70.9 33 4.8 40.7 -84.5 -3.327
09:48 1025 30.27 854 25.22 21.8 71.2 33 5.1 41.2 -84.4 -3.323
09:49 1025 30.27 854 25.22 22 71.5 31 4.2 39.6 -84.3 -3.319
09:50 1025 30.27 854 25.22 22 71.5 32 4.8 40.6 -84.3 -3.319
09:51 1025 30.27 854 25.22 22 71.5 27 2.2 35.9 -84.2 -3.315
09:52 1025 30.27 854 25.22 22 71.5 30 3.7 38.6 -84.1 -3.311
09:53 1025 30.27 854 25.22 22 71.5 33 5.2 41.3 -84.1 -3.311
09:54 1025 30.27 854 25.22 22 71.6 33 5 41.1 -84 -3.307
09:55 1025 30.27 854 25.22 22 71.6 31 4.1 39.3 -84 -3.307
09:56 1025 30.27 854 25.22 22.1 71.7 33 5.1 41.2 -83.9 -3.303
09:57 1025 30.27 854 25.22 22.1 71.8 32 5 41 -83.8 -3.299
09:58 1025 30.27 854 25.22 21.9 71.5 26 1.9 35.4 -83.7 -3.295
09:59 1025 30.27 854 25.22 21.9 71.4 30 3.7 38.7 -83.7 -3.295
10:00 1025 30.27 854 25.22 21.8 71.2 30 3.8 38.8 -83.6 -3.291
10:01 1025 30.27 854 25.22 21.7 71.1 30 3.7 38.6 -83.6 -3.291
10:02 1025 30.27 854 25.22 21.8 71.2 31 4.1 39.4 -83.5 -3.287
10:03 1025 30.27 854 25.22 21.7 71.1 32 4.7 40.4 -83.4 -3.283
10:04 1025 30.27 854 25.22 21.7 71 28 2.6 36.6 -83.3 -3.28
10:05 1025 30.27 854 25.22 21.8 71.2 32 4.3 39.8 -83.3 -3.28
10:06 1025 30.27 854 25.22 21.8 71.2 26 1.5 34.8 -83.2 -3.276
10:07 1025 30.27 854 25.22 21.7 71 31 3.9 39 -83.1 -3.272
10:08 1025 30.27 854 25.22 21.7 71 28 2.4 36.4 -83 -3.268
10:09 1025 30.27 854 25.22 21.7 71.1 31 3.9 38.9 -83 -3.268
10:10 1025 30.27 854 25.22 21.9 71.3 32 4.5 40.1 -82.9 -3.264
10:11 1025 30.27 854 25.22 22.1 71.7 26 1.6 34.9 -82.8 -3.26
10:12 1025 30.27 854 25.22 22.1 71.7 29 3.4 38.1 -82.7 -3.256
10:13 1025 30.27 854 25.22 22.1 71.9 28 3.1 37.7 -82.6 -3.252
10:14 1025 30.27 854 25.22 22.1 71.7 26 2 35.7 -82.6 -3.252
10:15 1025 30.27 854 25.22 22.1 71.7 28 2.9 37.2 -82.5 -3.248
10:16 1025 30.27 854 25.22 22.1 71.9 28 3.2 37.7 -82.4 -3.244
10:17 1025 30.27 854 25.22 22 71.7 31 4.5 40 -82.3 -3.24
10:18 1025 30.27 854 25.22 22 71.6 27 2.5 36.4 -82.3 -3.24
10:19 1025 30.27 854 25.22 22.1 71.7 29 3.6 38.4 -82.2 -3.236
10:20 1025 30.27 854 25.22 22.2 71.9 27 2.6 36.7 -82.1 -3.232
10:21 1025 30.27 854 25.22 22.2 71.9 30 3.9 39 -82 -3.228
10:22 1025 30.27 854 25.22 22.2 71.9 30 3.7 38.7 -81.9 -3.224
10:23 1025 30.27 854 25.22 22.1 71.8 28 3.1 37.5 -81.8 -3.22
10:24 1025 30.27 854 25.22 22.1 71.9 28 2.8 37 -81.8 -3.22
10:25 1025 30.27 854 25.22 22.2 72 33 5.3 41.6 -81.7 -3.217
10:26 1025 30.27 854 25.22 22.3 72.1 27 2.6 36.6 -81.6 -3.213
10:27 1025 30.27 854 25.22 22.2 72 29 3.7 38.7 -81.5 -3.209
10:28 1025 30.27 854 25.22 22.2 72 28 2.8 37.1 -81.4 -3.205
10:29 1025 30.27 854 25.22 22.2 72 28 3 37.4 -81.3 -3.201
10:30 1025 30.27 854 25.22 22.3 72.1 29 3.6 38.5 -81.3 -3.201
10:31 1025 30.27 854 25.22 22.4 72.2 33 5.4 41.7 -81.2 -3.197
10:32 1025 30.27 854 25.22 22.5 72.5 28 3.3 38 -81.1 -3.193
10:33 1025 30.27 854 25.22 22.6 72.7 25 1.7 35 -81 -3.189
10:34 1025 30.27 854 25.22 22.6 72.7 31 4.6 40.3 -80.9 -3.185
10:35 1025 30.27 854 25.22 22.6 72.6 33 5.8 42.5 -80.8 -3.181
10:36 1025 30.27 854 25.22 22.7 72.9 31 5 41 -80.7 -3.177
10:37 1025 30.27 854 25.22 22.6 72.8 28 3.6 38.4 -80.7 -3.177
10:38 1025 30.27 854 25.22 22.5 72.4 29 3.8 38.8 -80.6 -3.173
10:39 1025 30.27 854 25.22 22.3 72.2 29 3.8 38.9 -80.5 -3.169
10:40 1025 30.27 854 25.22 22.3 72.2 29 3.5 38.2 -80.4 -3.165
10:41 1025 30.27 854 25.22 22.3 72.2 28 3.2 37.8 -80.3 -3.161
10:42 1025 30.27 854 25.22 22.5 72.4 29 3.8 38.9 -80.2 -3.157
10:43 1025 30.27 854 25.22 22.5 72.6 32 5.2 41.4 -80.2 -3.157
10:44 1025 30.27 854 25.22 22.5 72.6 33 5.5 41.8 -80.1 -3.154
10:45 1025 30.27 854 25.22 22.6 72.7 30 4.6 40.2 -80 -3.15
10:46 1025 30.27 854 25.22 22.6 72.6 29 3.6 38.6 -79.9 -3.146
10:47 1025 30.27 854 25.22 22.6 72.6 29 3.8 38.8 -79.8 -3.142
10:48 1025 30.27 854 25.22 22.6 72.6 31 4.8 40.6 -79.7 -3.138
10:49 1025 30.27 854 25.22 22.7 72.8 34 6 42.9 -79.6 -3.134
10:50 1025 30.27 854 25.22 22.7 72.9 29 3.8 38.8 -79.5 -3.13
10:51 1025 30.27 854 25.22 22.7 72.8 28 3.4 38.2 -79.5 -3.13
10:52 1025 30.27 854 25.22 22.7 72.8 33 5.7 42.3 -79.4 -3.126
10:53 1025 30.27 854 25.22 22.8 73 29 3.8 38.8 -79.3 -3.122
10:54 1025 30.27 854 25.22 22.7 72.9 29 3.9 39 -79.2 -3.118
10:55 1025 30.27 854 25.22 22.6 72.7 31 4.8 40.6 -79.1 -3.114
10:56 1025 30.27 854 25.22 22.7 72.8 29 3.7 38.7 -79 -3.11
10:57 1025 30.27 854 25.22 22.6 72.7 27 2.8 37.1 -79 -3.11
10:58 1025 30.27 854 25.22 22.6 72.7 32 5.1 41.2 -78.9 -3.106
10:59 1025 30.27 854 25.22 22.8 73 31 5.1 41.2 -78.8 -3.102
11:00 1025 30.27 854 25.22 22.9 73.1 29 4 39.3 -78.7 -3.098
11:01 1025 30.27 854 25.22 22.8 73.1 30 4.4 39.9 -78.6 -3.094
11:02 1025 30.27 854 25.22 22.8 73 27 3.2 37.7 -78.5 -3.091
11:03 1025 30.27 854 25.22 22.8 73 31 5 41 -78.5 -3.091
11:04 1025 30.27 854 25.22 22.8 73 26 2.7 36.9 -78.4 -3.087
11:05 1025 30.27 854 25.22 22.8 73 29 4.1 39.3 -78.3 -3.083
11:06 1025 30.27 854 25.22 22.7 72.9 28 3.4 38.1 -78.2 -3.079
11:07 1025 30.27 854 25.22 22.7 72.8 26 2.4 36.4 -78.1 -3.075
11:08 1025 30.27 854 25.22 22.8 73 28 3.7 38.7 -78 -3.071
11:09 1025 30.27 854 25.22 22.8 73.1 32 5.6 42.2 -77.9 -3.067
11:10 1025 30.27 854 25.22 22.9 73.2 33 6.1 43 -77.8 -3.063
11:11 1025 30.27 854 25.22 23 73.3 30 4.6 40.2 -77.8 -3.063
11:12 1025 30.27 854 25.22 23 73.5 25 2.4 36.3 -77.7 -3.059
11:13 1025 30.27 854 25.22 23.1 73.5 28 3.6 38.5 -77.6 -3.055
11:14 1025 30.27 854 25.22 23.2 73.8 26 2.8 37 -77.5 -3.051
11:15 1025 30.27 854 25.22 23.3 74 26 2.8 37.1 -77.4 -3.047
11:16 1025 30.27 854 25.22 23.4 74.1 28 4.1 39.3 -77.3 -3.043
11:17 1025 30.27 854 25.22 23.5 74.2 25 2.8 37 -77.2 -3.039
11:18 1025 30.27 854 25.22 23.6 74.5 25 2.5 36.6 -77.2 -3.039
11:19 1025 30.27 854 25.22 23.6 74.5 26 3.3 37.9 -77.1 -3.035
11:20 1025 30.27 854 25.22 23.7 74.6 29 4.6 40.3 -77 -3.031
11:21 1025 30.27 854 25.22 23.8 74.9 25 3 37.4 -76.9 -3.028
11:22 1025 30.27 854 25.22 23.9 75.1 29 5.3 41.5 -76.9 -3.028
11:23 1025 30.27 854 25.22 24 75.2 26 3.6 38.5 -76.8 -3.024
11:24 1025 30.27 854 25.22 24 75.1 28 4.8 40.6 -76.7 -3.02
11:25 1025 30.27 854 25.22 24 75.1 25 3.2 37.7 -76.6 -3.016
11:26 1025 30.27 854 25.22 23.9 75 24 2.5 36.5 -76.5 -3.012
11:27 1025 30.27 854 25.22 23.7 74.6 24 2.4 36.3 -76.5 -3.012
11:28 1025 30.27 854 25.22 23.7 74.7 24 2.3 36.1 -76.4 -3.008
11:29 1025 30.27 854 25.22 23.8 74.8 27 3.9 39 -76.3 -3.004
11:30 1025 30.27 854 25.22 24 75.1 30 5.6 42.1 -76.2 -3
11:31 1025 30.27 854 25.22 24 75.1 27 3.9 39 -76.1 -2.996
11:32 1025 30.27 854 25.22 24 75.2 25 3.1 37.6 -76 -2.992
11:33 1025 30.27 854 25.22 24 75.3 30 5.4 41.8 -75.9 -2.988
11:34 1025 30.27 854 25.22 24.1 75.3 24 2.4 36.3 -75.8 -2.984
11:35 1025 30.27 854 25.22 24.1 75.3 28 4.4 40 -75.7 -2.98
11:36 1025 30.27 854 25.22 24.1 75.3 26 3.7 38.6 -75.6 -2.976
11:37 1025 30.27 854 25.22 24.1 75.3 28 4.8 40.6 -75.5 -2.972
11:38 1025 30.27 854 25.22 24.2 75.5 26 3.6 38.6 -75.4 -2.969
11:39 1025 30.27 854 25.22 24.3 75.7 30 5.9 42.6 -75.3 -2.965
11:40 1025 30.27 854 25.22 24.5 76.1 24 3 37.3 -75.2 -2.961
11:41 1025 30.27 854 25.22 24.5 76.2 29 5.3 41.6 -75.1 -2.957
11:42 1025 30.27 854 25.22 24.6 76.2 23 2.6 36.7 -75 -2.953
11:43 1025 30.27 854 25.22 24.5 76.2 23 2.5 36.6 -74.9 -2.949
11:44 1025 30.27 854 25.22 24.5 76.2 25 3.4 38.1 -74.8 -2.945
11:45 1025 30.27 854 25.22 24.7 76.4 23 2.3 36.1 -74.7 -2.941
11:46 1025 30.27 854 25.22 24.6 76.3 25 3.3 37.9 -74.6 -2.937
11:47 1025 30.27 854 25.22 24.5 76.1 27 4.5 40.1 -74.5 -2.933
11:48 1025 30.27 854 25.22 24.5 76.1 25 3.7 38.6 -74.4 -2.929
11:49 1025 30.27 854 25.22 24.5 76 25 3.5 38.4 -74.3 -2.925
11:50 1025 30.27 854 25.22 24.4 75.9 25 3.4 38.1 -74.2 -2.921
11:51 1025 30.27 854 25.22 24.4 76 25 3.5 38.3 -74.1 -2.917
11:52 1025 30.27 854 25.22 24.4 75.8 25 3.1 37.6 -74 -2.913
11:53 1025 30.27 854 25.22 24.3 75.7 24 2.9 37.3 -73.9 -2.909
11:54 1025 30.27 854 25.22 24.3 75.7 24 2.9 37.2 -73.8 -2.906
11:55 1025 30.27 854 25.22 24.3 75.8 25 3.5 38.3 -73.7 -2.902
11:56 1025 30.27 854 25.22 24.5 76 28 5.1 41.1 -73.7 -2.902
11:57 1025 30.27 854 25.22 24.5 76.1 26 4.1 39.3 -73.6 -2.898
11:58 1024 30.24 854 25.22 24.6 76.3 24 3 37.4 -73.4 -2.89
11:59 1024 30.24 854 25.22 24.7 76.5 24 3.1 37.5 -73.4 -2.89
12:00 1024 30.24 854 25.22 24.8 76.7 27 4.8 40.7 -73.3 -2.886
12:01 1024 30.24 854 25.22 24.9 76.9 24 3 37.3 -73.2 -2.882
12:02 1024 30.24 854 25.22 24.9 76.8 27 5.1 41.1 -73.1 -2.878
12:03 1024 30.24 854 25.22 25 76.9 29 6.1 42.9 -72.9 -2.87
12:04 1024 30.24 854 25.22 25.1 77.1 30 6.3 43.4 -72.8 -2.866
12:05 1024 30.24 854 25.22 25.1 77.2 29 5.9 42.6 -72.7 -2.862
12:06 1024 30.24 854 25.22 25.2 77.3 26 4.8 40.7 -72.6 -2.858
12:07 1024 30.24 854 25.22 25.1 77.1 30 6.3 43.4 -72.5 -2.854
12:08 1024 30.24 854 25.22 25 76.9 26 4.4 39.8 -72.5 -2.854
12:09 1024 30.24 854 25.22 24.9 76.9 29 5.7 42.3 -72.4 -2.85
12:10 1024 30.24 854 25.22 25 77 26 4.3 39.7 -72.3 -2.846
12:11 1024 30.24 854 25.22 25.1 77.1 29 6.1 42.9 -72.2 -2.843
12:12 1024 30.24 854 25.22 25.3 77.5 26 4.7 40.5 -72.1 -2.839
12:13 1024 30.24 854 25.22 25.3 77.6 32 7.7 45.8 -72 -2.835
12:14 1024 30.24 854 25.22 25.4 77.7 31 7.3 45.2 -71.9 -2.831
12:15 1024 30.24 854 25.22 25.5 77.8 26 4.5 40.2 -71.8 -2.827
12:16 1024 30.24 854 25.22 25.4 77.8 25 4.2 39.5 -71.7 -2.823
12:17 1024 30.24 853 25.19 25.5 77.8 25 4.4 40 -71.6 -2.819
12:18 1024 30.24 854 25.22 25.6 78.1 31 7.5 45.6 -71.5 -2.815
12:19 1024 30.24 853 25.19 25.7 78.2 25 4.4 39.9 -71.4 -2.811
12:20 1024 30.24 853 25.19 25.6 78.1 31 7.4 45.4 -71.3 -2.807
12:21 1024 30.24 853 25.19 25.6 78.1 28 6 42.9 -71.2 -2.803
12:22 1024 30.24 853 25.19 25.6 78.2 25 4.6 40.3 -71.1 -2.799
12:23 1024 30.24 853 25.19 25.6 78 24 3.8 38.8 -71 -2.795
12:24 1024 30.24 853 25.19 25.5 77.9 24 3.6 38.5 -70.9 -2.791
12:25 1024 30.24 853 25.19 25.4 77.6 27 5 41.1 -70.8 -2.787
12:26 1024 30.24 853 25.19 25.4 77.8 24 3.8 38.8 -70.7 -2.783
12:27 1024 30.24 853 25.19 25.7 78.2 27 5.6 42.1 -70.6 -2.78
12:28 1024 30.24 853 25.19 25.9 78.5 27 5.7 42.3 -70.5 -2.776
12:29 1024 30.24 853 25.19 25.9 78.5 27 5.9 42.7 -70.4 -2.772
12:30 1024 30.24 853 25.19 25.7 78.2 23 3.6 38.4 -70.3 -2.768
12:31 1024 30.24 853 25.19 25.7 78.3 27 5.8 42.4 -70.2 -2.764
12:32 1024 30.24 853 25.19 25.8 78.5 26 5.1 41.2 -70.1 -2.76
12:33 1024 30.24 853 25.19 26.1 78.9 23 3.7 38.6 -70 -2.756
12:34 1024 30.24 853 25.19 26.2 79.1 23 3.6 38.6 -69.97 -2.755
12:35 1024 30.24 853 25.19 26.1 79 23 3.4 38.1 -69.89 -2.752
12:36 1024 30.24 853 25.19 26.2 79.1 26 5.5 41.9 -69.79 -2.748
12:37 1024 30.24 853 25.19 26.3 79.3 28 6.5 43.7 -69.7 -2.744
12:38 1024 30.24 853 25.19 26.1 79 24 4 39.1 -69.64 -2.742
12:39 1024 30.24 853 25.19 26 78.7 25 4.5 40 -69.57 -2.739
12:40 1024 30.24 853 25.19 25.9 78.6 27 5.9 42.6 -69.46 -2.735
12:41 1024 30.24 853 25.19 25.9 78.7 26 5.1 41.2 -69.39 -2.732
12:42 1024 30.24 853 25.19 26 78.8 24 4.3 39.7 -69.3 -2.728
12:43 1024 30.24 853 25.19 26.1 78.9 26 5.6 42.1 -69.19 -2.724
12:44 1024 30.24 853 25.19 26.1 78.9 29 7 44.6 -69.1 -2.72
12:45 1024 30.24 853 25.19 26.1 78.9 25 4.9 40.8 -69.02 -2.717
12:46 1024 30.24 853 25.19 26 78.8 28 6.1 43.1 -68.94 -2.714
12:47 1024 30.24 853 25.19 26 78.7 26 5.5 41.8 -68.86 -2.711
12:48 1024 30.24 853 25.19 26 78.7 28 6.6 43.8 -68.81 -2.709
12:49 1024 30.24 853 25.19 26.1 78.9 29 6.7 44 -68.72 -2.706
12:50 1024 30.24 853 25.19 26.2 79.1 29 6.8 44.3 -68.61 -2.701
12:51 1024 30.24 853 25.19 26.2 79.2 25 4.9 40.9 -68.57 -2.7
12:52 1024 30.24 853 25.19 26.3 79.3 28 6.5 43.7 -68.5 -2.697
12:53 1024 30.24 853 25.19 26.3 79.4 25 4.8 40.6 -68.43 -2.694
12:54 1024 30.24 853 25.19 26.3 79.3 22 3.4 38.1 -68.37 -2.692
12:55 1024 30.24 853 25.19 26.3 79.3 24 4.3 39.8 -68.29 -2.689
12:56 1024 30.24 853 25.19 26.2 79.2 25 5 40.9 -68.23 -2.686
12:57 1024 30.24 853 25.19 26.1 79 25 5 41.1 -68.18 -2.684
12:58 1024 30.24 853 25.19 26.1 78.9 28 6.6 43.8 -68.11 -2.681
12:59 1024 30.24 853 25.19 26.2 79.1 29 6.9 44.5 -68.06 -2.68
13:00 1024 30.24 853 25.19 26.3 79.3 26 5.6 42.1 -67.99 -2.677
13:01 1024 30.24 853 25.19 26.5 79.6 30 8 46.3 -67.9 -2.673
13:02 1024 30.24 853 25.19 26.7 80 30 8.2 46.7 -67.84 -2.671
13:03 1024 30.24 853 25.19 26.7 80.1 26 6.1 42.9 -67.81 -2.67
13:04 1024 30.24 853 25.19 26.6 79.9 28 7.1 44.7 -67.77 -2.668
13:05 1024 30.24 853 25.19 26.6 79.8 26 6 42.8 -67.73 -2.667
13:06 1024 30.24 853 25.19 26.5 79.8 25 5 41.1 -67.66 -2.664
13:07 1024 30.24 853 25.19 26.6 79.9 29 7.3 45.1 -67.58 -2.661
13:08 1024 30.24 853 25.19 26.7 80.1 28 6.9 44.5 -67.5 -2.657
13:09 1024 30.24 853 25.19 26.9 80.3 26 5.8 42.4 -67.47 -2.656
13:10 1024 30.24 853 25.19 26.8 80.2 25 5.2 41.4 -67.43 -2.655
13:11 1024 30.24 853 25.19 26.8 80.2 23 3.9 39.1 -67.36 -2.652
13:12 1024 30.24 853 25.19 26.7 80.1 27 6.7 44 -67.33 -2.651
13:13 1024 30.24 853 25.19 26.7 80.1 24 4.8 40.6 -67.29 -2.649
13:14 1024 30.24 853 25.19 26.8 80.2 24 4.6 40.3 -67.23 -2.647
13:15 1024 30.24 853 25.19 26.8 80.2 33 9.4 49 -67.18 -2.645
13:16 1024 30.24 853 25.19 26.8 80.3 26 6 42.7 -67.12 -2.643
13:17 1024 30.24 853 25.19 26.9 80.5 27 6.4 43.6 -67.09 -2.641
13:18 1024 30.24 853 25.19 27 80.6 22 3.5 38.2 -67.04 -2.639
13:19 1024 30.24 853 25.19 27.1 80.8 23 4.8 40.6 -66.97 -2.637
13:20 1024 30.24 853 25.19 27.2 80.9 25 5.8 42.4 -66.95 -2.636
13:21 1023 30.21 853 25.19 27.3 81.1 24 5 40.9 -66.89 -2.633
13:22 1023 30.21 853 25.19 27.3 81.1 21 3.2 37.7 -66.85 -2.632
13:23 1023 30.21 853 25.19 27.2 80.9 22 3.9 39.1 -66.8 -2.63
13:24 1023 30.21 853 25.19 27.1 80.9 22 4.1 39.3 -66.75 -2.628
13:25 1023 30.21 853 25.19 27.2 80.9 24 5.4 41.7 -66.7 -2.626
13:26 1023 30.21 852 25.16 27.2 81 23 4.7 40.4 -66.64 -2.624
13:27 1023 30.21 853 25.19 27.3 81.1 20 2.8 37 -66.59 -2.622
13:28 1023 30.21 852 25.16 27.3 81.1 21 3.5 38.3 -66.54 -2.62
13:29 1023 30.21 852 25.16 27.3 81.1 20 2.5 36.6 -66.49 -2.618
13:30 1023 30.21 852 25.16 27.3 81.1 26 6.4 43.5 -66.46 -2.617
13:31 1023 30.21 852 25.16 27.3 81.2 23 4.8 40.7 -66.4 -2.614
13:32 1023 30.21 852 25.16 27.5 81.4 27 6.9 44.4 -66.33 -2.611
13:33 1023 30.21 852 25.16 27.4 81.4 20 2.9 37.3 -66.3 -2.61
13:34 1023 30.21 852 25.16 27.4 81.4 25 6 42.8 -66.26 -2.609
13:35 1023 30.21 852 25.16 27.4 81.4 19 2 35.7 -66.2 -2.606
13:36 1023 30.21 852 25.16 27.3 81.2 20 2.4 36.3 -66.21 -2.607
13:37 1023 30.21 852 25.16 27.3 81.2 23 4.9 40.8 -66.17 -2.605
13:38 1023 30.21 852 25.16 27.5 81.4 22 4 39.1 -66.17 -2.605
13:39 1023 30.21 852 25.16 27.5 81.4 22 4.1 39.4 -66.03 -2.6
13:40 1023 30.21 852 25.16 27.5 81.4 23 5 41 -65.97 -2.597
13:41 1023 30.21 852 25.16 27.4 81.3 23 4.6 40.2 -65.92 -2.595
13:42 1023 30.21 852 25.16 27.4 81.3 25 6.1 43 -65.89 -2.594
13:43 1023 30.21 852 25.16 27.4 81.3 20 3 37.3 -65.82 -2.591
13:44 1023 30.21 852 25.16 27.3 81.2 19 1.9 35.4 -65.78 -2.59
13:45 1023 30.21 852 25.16 27.4 81.3 23 4.8 40.6 -65.72 -2.587
13:46 1023 30.21 852 25.16 27.4 81.4 18 1.4 34.5 -65.69 -2.586
13:47 1023 30.21 852 25.16 27.5 81.5 22 4.4 39.9 -65.63 -2.584
13:48 1023 30.21 852 25.16 27.7 81.8 20 3.3 38 -65.57 -2.581
13:49 1023 30.21 852 25.16 27.8 82.1 20 3 37.4 -65.55 -2.581
13:50 1023 30.21 852 25.16 27.8 82.1 22 4.2 39.6 -65.53 -2.58
13:51 1023 30.21 852 25.16 27.9 82.2 25 6.1 42.9 -65.49 -2.578
13:52 1023 30.21 852 25.16 28 82.5 21 3.9 39 -65.43 -2.576
13:53 1023 30.21 852 25.16 28.1 82.5 26 6.9 44.4 -65.4 -2.575
13:54 1023 30.21 852 25.16 28.1 82.5 25 6.6 44 -65.33 -2.572
13:55 1023 30.21 852 25.16 28.2 82.8 19 3 37.5 -65.3 -2.571
13:56 1023 30.21 852 25.16 28.2 82.7 19 2.5 36.4 -65.26 -2.569
13:57 1023 30.21 852 25.16 28.1 82.6 17 1.2 34.1 -65.22 -2.568
13:58 1023 30.21 852 25.16 28.1 82.6 19 2.5 36.5 -65.15 -2.565
13:59 1023 30.21 852 25.16 28.2 82.7 18 1.6 34.8 -65.1 -2.563
14:00 1023 30.21 852 25.16 28.2 82.8 20 3.8 38.8 -65.06 -2.561
14:01 1023 30.21 852 25.16 28.3 83 19 2.6 36.7 -64.98 -2.558
14:02 1023 30.21 852 25.16 28.4 83.2 14 -1.4 29.5 -64.93 -2.556
14:03 1023 30.21 852 25.16 28.5 83.3 16 0.6 33.1 -64.86 -2.554
14:04 1023 30.21 852 25.16 28.5 83.3 15 -0.8 30.6 -64.81 -2.552
14:05 1023 30.21 852 25.16 28.6 83.4 18 2 35.5 -64.73 -2.548
14:06 1023 30.21 852 25.16 28.6 83.5 18 2.1 35.7 -64.68 -2.546
14:07 1023 30.21 852 25.16 28.6 83.4 14 -0.9 30.4 -64.6 -2.543
14:08 1023 30.21 852 25.16 28.5 83.3 19 2.7 36.9 -64.52 -2.54
14:09 1023 30.21 852 25.16 28.6 83.5 18 2.1 35.9 -64.41 -2.536
14:10 1023 30.21 852 25.16 28.8 83.8 20 3.6 38.5 -64.3 -2.531
14:11 1023 30.21 852 25.16 28.8 83.9 16 0.8 33.4 -64.22 -2.528
14:12 1023 30.21 852 25.16 28.8 83.8 18 2.8 37.1 -64.14 -2.525
14:13 1023 30.21 852 25.16 28.8 83.8 20 3.9 39.1 -64.06 -2.522
14:14 1023 30.21 852 25.16 28.7 83.6 16 1 33.7 -63.97 -2.519
14:15 1023 30.21 852 25.16 28.6 83.5 14 -1.4 29.4 -63.87 -2.515
14:16 1023 30.21 852 25.16 28.6 83.5 14 -1.1 30 -63.77 -2.511
14:17 1023 30.21 852 25.16 28.6 83.5 17 1.4 34.5 -63.68 -2.507
14:18 1023 30.21 852 25.16 28.6 83.5 14 -1.3 29.7 -63.59 -2.504
14:19 1023 30.21 852 25.16 28.8 83.8 20 3.7 38.7 -63.47 -2.499
14:20 1023 30.21 852 25.16 28.9 84 17 2.1 35.8 -63.34 -2.494
14:21 1023 30.21 852 25.16 29 84.1 20 4 39.2 -63.25 -2.49
14:22 1023 30.21 852 25.16 29 84.2 17 2.1 35.8 -63.16 -2.487
14:23 1023 30.21 852 25.16 29 84.1 19 3.5 38.2 -63.06 -2.483
14:24 1023 30.21 852 25.16 28.9 84 14 -1.2 29.9 -62.96 -2.479
14:25 1023 30.21 852 25.16 28.8 83.8 16 0.7 33.2 -62.85 -2.474
14:26 1023 30.21 852 25.16 28.8 83.9 17 1.7 35.1 -62.73 -2.47
14:27 1023 30.21 852 25.16 28.7 83.7 14 -0.6 30.9 -62.62 -2.465
14:28 1023 30.21 852 25.16 28.8 83.9 14 -0.7 30.7 -62.5 -2.461
14:29 1023 30.21 852 25.16 28.8 83.8 19 3.1 37.5 -62.39 -2.456
14:30 1022 30.18 852 25.16 28.8 83.8 17 1.3 34.4 -62.3 -2.453
14:31 1023 30.21 852 25.16 28.8 83.8 19 3.1 37.6 -62.17 -2.448
14:32 1023 30.21 852 25.16 28.8 83.9 18 2.8 37 -62.06 -2.443
14:33 1023 30.21 852 25.16 28.9 84 19 3.6 38.5 -61.95 -2.439
14:34 1023 30.21 852 25.16 29 84.2 20 3.9 39.1 -61.82 -2.434
14:35 1023 30.21 852 25.16 29 84.3 16 1 33.8 -61.72 -2.43
14:36 1023 30.21 852 25.16 29.1 84.3 24 6.6 43.9 -61.61 -2.426
14:37 1023 30.21 852 25.16 29.2 84.6 20 4.3 39.8 -61.49 -2.421
14:38 1022 30.18 852 25.16 29.3 84.8 23 6.6 43.9 -61.35 -2.415
14:39 1022 30.18 852 25.16 29.5 85 16 1.3 34.3 -61.22 -2.41
14:40 1022 30.18 852 25.16 29.5 85 18 2.6 36.7 -61.1 -2.406
14:41 1022 30.18 852 25.16 29.4 84.8 15 0.1 32.2 -61.01 -2.402
14:42 1022 30.18 852 25.16 29.2 84.6 17 1.6 35 -60.9 -2.398
14:43 1022 30.18 852 25.16 29.2 84.5 18 2.7 36.8 -60.79 -2.393
14:44 1022 30.18 852 25.16 29.2 84.5 18 2.9 37.2 -60.66 -2.388
14:45 1022 30.18 852 25.16 29.2 84.6 19 3.4 38.2 -60.53 -2.383
14:46 1022 30.18 852 25.16 29.2 84.5 20 4.5 40.1 -60.39 -2.378
14:47 1022 30.18 852 25.16 29.1 84.3 13 -1.6 29.1 -60.26 -2.372
14:48 1022 30.18 852 25.16 29.1 84.4 18 2.9 37.3 -60.11 -2.367
14:49 1022 30.18 852 25.16 29.3 84.7 16 1.3 34.3 -59.93 -2.359
14:50 1022 30.18 852 25.16 29.5 85 16 1.7 35 -59.78 -2.354
14:51 1022 30.18 852 25.16 29.4 85 13 -1.9 28.5 -59.69 -2.35
14:52 1022 30.18 852 25.16 29.3 84.8 13 -1.2 29.9 -59.54 -2.344
14:53 1022 30.18 851 25.13 29.3 84.8 14 -0.9 30.4 -59.4 -2.339
14:54 1022 30.18 851 25.13 29.3 84.7 16 1.5 34.7 -59.26 -2.333
14:55 1022 30.18 851 25.13 29.2 84.5 15 -0 31.9 -59.13 -2.328
14:56 1022 30.18 851 25.13 29.3 84.7 15 -0.1 31.8 -58.97 -2.322
14:57 1022 30.18 851 25.13 29.4 84.9 13 -1.9 28.5 -58.81 -2.315
14:58 1022 30.18 851 25.13 29.4 85 20 4.1 39.4 -58.65 -2.309
14:59 1022 30.18 851 25.13 29.5 85.2 15 0.1 32.2 -58.48 -2.302
15:00 1022 30.18 851 25.13 29.5 85.1 13 -1.9 28.7 -58.34 -2.297
15:01 1022 30.18 851 25.13 29.4 84.8 14 -0.1 31.8 -58.2 -2.291
15:02 1022 30.18 851 25.13 29.3 84.7 15 0 32.1 -58.05 -2.285
15:03 1022 30.18 851 25.13 29.3 84.7 18 2.9 37.2 -57.88 -2.279
15:04 1022 30.18 851 25.13 29.5 85 13 -1.8 28.8 -57.71 -2.272
15:05 1022 30.18 851 25.13 29.6 85.2 14 -0.6 30.9 -57.56 -2.266
15:06 1022 30.18 851 25.13 29.7 85.4 16 1.6 34.8 -57.39 -2.259
15:07 1022 30.18 851 25.13 29.7 85.4 16 1.3 34.3 -57.24 -2.254
15:08 1022 30.18 851 25.13 29.6 85.3 17 2.2 35.9 -57.11 -2.248
15:09 1022 30.18 851 25.13 29.8 85.6 15 0.5 33 -56.93 -2.241
15:10 1022 30.18 851 25.13 29.9 85.9 14 -0.1 31.8 -56.75 -2.234
15:11 1022 30.18 851 25.13 30 86 15 0.5 32.9 -56.6 -2.228
15:12 1022 30.18 851 25.13 30.1 86.1 19 4.2 39.6 -56.44 -2.222
15:13 1022 30.18 851 25.13 30.1 86.1 13 -1.2 29.8 -56.29 -2.216
15:14 1022 30.18 851 25.13 30 85.9 20 4.7 40.4 -56.15 -2.211
15:15 1022 30.18 851 25.13 29.9 85.8 12 -1.8 28.7 -55.99 -2.204
15:16 1022 30.18 851 25.13 30 85.9 13 -1.5 29.3 -55.82 -2.198
15:17 1022 30.18 851 25.13 30 86 19 4.5 40.1 -55.62 -2.19
15:18 1022 30.18 851 25.13 30.2 86.3 18 3.9 39 -55.44 -2.183
15:19 1022 30.18 851 25.13 30.3 86.6 17 2.6 36.7 -55.26 -2.176
15:20 1022 30.18 851 25.13 30.3 86.5 15 0.9 33.6 -55.11 -2.17
15:21 1022 30.18 851 25.13 30.2 86.3 14 0.3 32.5 -54.97 -2.164
15:22 1022 30.18 851 25.13 30.1 86.1 17 2.4 36.2 -54.83 -2.159
15:23 1022 30.18 851 25.13 30 86.1 14 -0.4 31.3 -54.66 -2.152
15:24 1022 30.18 851 25.13 29.9 85.8 15 0.7 33.3 -54.52 -2.146
15:25 1022 30.18 851 25.13 29.8 85.6 21 5.3 41.6 -54.42 -2.143
15:26 1022 30.18 851 25.13 29.8 85.6 16 1.8 35.3 -54.26 -2.136
15:27 1022 30.18 851 25.13 29.8 85.6 13 -0.9 30.3 -54.03 -2.127
15:28 1022 30.18 851 25.13 29.8 85.6 14 0.2 32.4 -53.85 -2.12
15:29 1022 30.18 851 25.13 29.8 85.6 16 1.3 34.3 -53.66 -2.113
15:30 1022 30.18 851 25.13 29.8 85.6 20 4.5 40.1 -53.44 -2.104
15:31 1022 30.18 851 25.13 29.7 85.4 16 1.2 34.1 -53.26 -2.097
15:32 1022 30.18 851 25.13 29.5 85 19 3.7 38.6 -53.1 -2.091
15:33 1022 30.18 851 25.13 29.3 84.7 20 4 39.2 -52.92 -2.083
15:34 1022 30.18 851 25.13 29.1 84.4 22 5.5 41.9 -52.75 -2.077
15:35 1022 30.18 851 25.13 28.9 84.1 22 5.7 42.2 -52.59 -2.07
15:36 1022 30.18 851 25.13 28.7 83.6 16 1 33.8 -52.49 -2.067
15:37 1022 30.18 851 25.13 28.5 83.3 19 3.1 37.5 -52.37 -2.062
15:38 1022 30.18 851 25.13 28.6 83.4 23 5.8 42.5 -52.27 -2.058
15:39 1022 30.18 851 25.13 28.6 83.5 22 5.1 41.2 -52.16 -2.054
15:40 1022 30.18 851 25.13 28.6 83.6 18 2.5 36.5 -52.12 -2.052
15:41 1022 30.18 851 25.13 28.5 83.4 18 2.6 36.7 -52.12 -2.052
15:42 1022 30.18 851 25.13 28.7 83.6 16 0.9 33.7 -52.08 -2.05
15:43 1022 30.18 851 25.13 28.9 83.9 16 1.2 34.2 -52.06 -2.05
15:44 1022 30.18 851 25.13 29.1 84.3 24 6.9 44.5 -52.07 -2.05
15:45 1022 30.18 851 25.13 29.2 84.5 20 3.9 39 -52.11 -2.052
15:46 1022 30.18 851 25.13 29.4 84.9 18 2.7 36.9 -52.12 -2.052
15:47 1022 30.18 851 25.13 29.6 85.3 14 -0.4 31.2 -52.15 -2.053
15:48 1022 30.18 851 25.13 29.9 85.9 15 0.7 33.2 -52.15 -2.053
15:49 1022 30.18 851 25.13 30.2 86.4 19 4.3 39.8 -52.19 -2.055
15:50 1022 30.18 851 25.13 30.3 86.5 14 0.2 32.4 -52.22 -2.056
15:51 1022 30.18 851 25.13 30.1 86.1 16 2 35.6 -52.24 -2.057
15:52 1022 30.18 851 25.13 29.9 85.8 18 3 37.4 -52.25 -2.057
15:53 1022 30.18 851 25.13 29.9 85.8 14 -0.6 30.9 -52.21 -2.056
15:54 1022 30.18 851 25.13 29.9 85.9 14 -0.2 31.6 -52.18 -2.054
15:55 1022 30.18 851 25.13 30 86.1 19 4.5 40.2 -52.13 -2.052
15:56 1022 30.18 851 25.13 30 86 15 0.5 32.8 -52.12 -2.052
15:57 1022 30.18 851 25.13 29.8 85.7 13 -0.7 30.7 -52.05 -2.049
15:58 1022 30.18 851 25.13 29.7 85.5 14 0.2 32.4 -51.98 -2.046
15:59 1022 30.18 851 25.13 29.7 85.5 14 -0.3 31.5 -51.89 -2.043
16:00 1022 30.18 851 25.13 29.9 85.8 18 3 37.5 -51.8 -2.039
16:01 1022 30.18 851 25.13 30.1 86.2 18 3.9 39 -51.67 -2.034
16:02 1022 30.18 851 25.13 30.4 86.7 13 -0.7 30.7 -51.55 -2.03
16:03 1022 30.18 851 25.13 30.5 86.9 13 -0.6 30.8 -51.45 -2.026
16:04 1022 30.18 851 25.13 30.5 86.9 21 5.9 42.6 -51.35 -2.022
16:05 1022 30.18 851 25.13 30.6 87.1 13 -0.8 30.6 -51.2 -2.016
16:06 1022 30.18 851 25.13 30.5 87 19 4.4 39.9 -51.06 -2.01
16:07 1022 30.18 851 25.13 30.5 87 13 -1 30.2 -50.89 -2.004
16:08 1021 30.15 851 25.13 30.6 87.1 13 -0.1 31.8 -50.69 -1.996
16:09 1021 30.15 851 25.13 30.7 87.2 14 0.2 32.4 -50.45 -1.986
16:10 1021 30.15 851 25.13 30.7 87.3 17 2.8 37.1 -50.25 -1.978
16:11 1021 30.15 851 25.13 30.7 87.2 16 2.1 35.8 -50.07 -1.971
16:12 1021 30.15 851 25.13 30.7 87.2 13 -0.4 31.3 -49.89 -1.964
16:13 1021 30.15 851 25.13 30.7 87.3 14 0.3 32.5 -49.69 -1.956
16:14 1021 30.15 851 25.13 30.6 87.1 14 0.7 33.3 -49.44 -1.946
16:15 1021 30.15 851 25.13 30.7 87.2 19 5.1 41.2 -49.18 -1.936
16:16 1021 30.15 851 25.13 30.9 87.7 17 3.7 38.7 -48.96 -1.928
16:17 1021 30.15 851 25.13 30.9 87.7 14 0.6 33 -48.77 -1.92
16:18 1021 30.15 851 25.13 30.8 87.4 14 0.3 32.5 -48.56 -1.912
16:19 1021 30.15 851 25.13 30.7 87.2 19 4.5 40.1 -48.32 -1.902
16:20 1021 30.15 851 25.13 30.8 87.4 13 -0.3 31.4 -48.07 -1.893
16:21 1021 30.15 851 25.13 30.9 87.6 16 2.7 36.9 -47.83 -1.883
16:22 1021 30.15 851 25.13 30.9 87.7 13 -0.6 31 -47.6 -1.874
16:23 1021 30.15 850 25.1 30.8 87.5 15 1.6 34.9 -47.35 -1.864
16:24 1021 30.15 850 25.1 30.8 87.4 15 1.2 34.1 -47.12 -1.855
16:25 1021 30.15 850 25.1 30.7 87.3 13 -0.8 30.5 -46.94 -1.848
16:26 1021 30.15 851 25.13 30.6 87.1 13 -1 30.1 -46.99 -1.85
16:27 1021 30.15 851 25.13 30.5 86.9 15 1.6 34.9 -46.99 -1.85
16:28 1021 30.15 851 25.13 30.4 86.7 15 1.1 33.9 -46.88 -1.846
16:29 1021 30.15 851 25.13 30.4 86.8 13 -0.7 30.7 -46.71 -1.839
16:30 1021 30.15 851 25.13 30.4 86.6 13 -0.8 30.6 -46.55 -1.833
16:31 1021 30.15 851 25.13 30.3 86.5 13 -0.8 30.5 -46.38 -1.826
16:32 1021 30.15 851 25.13 30.4 86.7 14 0.2 32.3 -46.2 -1.819
16:33 1021 30.15 851 25.13 30.4 86.7 19 4.7 40.5 -46.04 -1.813
16:34 1021 30.15 851 25.13 30.3 86.6 13 -0.7 30.7 -45.89 -1.807
16:35 1021 30.15 851 25.13 30.2 86.3 14 0.5 33 -45.75 -1.801
16:36 1021 30.15 851 25.13 30.1 86.1 20 4.8 40.6 -45.62 -1.796
16:37 1021 30.15 851 25.13 29.9 85.9 13 -1 30.3 -45.5 -1.791
16:38 1021 30.15 851 25.13 29.8 85.7 13 -1 30.3 -45.39 -1.787
16:39 1021 30.15 851 25.13 29.8 85.7 15 0.4 32.7 -45.31 -1.784
16:40 1021 30.15 851 25.13 29.9 85.8 20 5.1 41.1 -45.23 -1.781
16:41 1021 30.15 850 25.1 30 86 15 1.2 34.2 -45.17 -1.778
16:42 1021 30.15 850 25.1 30.1 86.1 15 0.9 33.7 -45.13 -1.777
16:43 1021 30.15 850 25.1 30.1 86.2 14 -0.3 31.5 -45.08 -1.775
16:44 1021 30.15 850 25.1 30.1 86.2 13 -0.6 30.9 -45.08 -1.775
16:45 1021 30.15 850 25.1 30.2 86.3 20 5 41 -45.1 -1.776
16:46 1021 30.15 850 25.1 30.2 86.3 22 6.5 43.8 -45.13 -1.777
16:47 1021 30.15 850 25.1 30.1 86.1 22 6.2 43.1 -45.18 -1.779
16:48 1021 30.15 850 25.1 29.8 85.6 22 6.3 43.3 -45.24 -1.781
16:49 1021 30.15 850 25.1 29.5 85.1 19 4 39.3 -45.3 -1.783
16:50 1021 30.15 850 25.1 29.4 84.9 20 4.4 39.9 -45.38 -1.787
16:51 1021 30.15 850 25.1 29.3 84.7 26 8 46.5 -45.37 -1.786
16:52 1021 30.15 850 25.1 29.1 84.4 24 6.7 44.1 -45.23 -1.781
16:53 1021 30.15 850 25.1 29 84.2 19 3.5 38.3 -45.23 -1.781
16:54 1021 30.15 850 25.1 29 84.1 21 5.1 41.1 -45.31 -1.784
16:55 1021 30.15 850 25.1 28.9 84.1 23 6.1 43 -45.43 -1.789
16:56 1021 30.15 850 25.1 28.9 84 29 9.6 49.3 -45.59 -1.795
16:57 1021 30.15 850 25.1 28.8 83.8 22 5.2 41.4 -45.75 -1.801
16:58 1021 30.15 850 25.1 28.7 83.6 20 3.6 38.4 -45.92 -1.808
16:59 1021 30.15 850 25.1 28.6 83.4 25 6.7 44 -46.12 -1.816
17:00 1021 30.15 850 25.1 28.5 83.3 23 5.8 42.4 -46.33 -1.824
17:01 1021 30.15 850 25.1 28.5 83.2 23 5.6 42.1 -46.58 -1.834
17:02 1021 30.15 850 25.1 28.4 83.2 22 5.1 41.3 -46.79 -1.842
17:03 1021 30.15 850 25.1 28.4 83.2 20 4 39.1 -47.03 -1.852
17:04 1021 30.15 850 25.1 28.4 83.1 21 4.5 40 -47.38 -1.865
17:05 1021 30.15 850 25.1 28.4 83.1 20 3.8 38.9 -47.68 -1.877
17:06 1021 30.15 850 25.1 28.4 83.2 21 4.3 39.7 -48.01 -1.89
17:07 1021 30.15 850 25.1 28.4 83 24 6.1 43 -48.47 -1.908
17:08 1021 30.15 850 25.1 28.3 82.9 18 2.2 36 -49.06 -1.931
17:09 1021 30.15 851 25.13 28.2 82.8 17 1 33.7 -49.78 -1.96
17:10 1021 30.15 851 25.13 28.3 83 16 0.4 32.7 -50.63 -1.993
17:11 1021 30.15 851 25.13 28.5 83.2 16 0.6 33 -51.77 -2.038
17:12 1021 30.15 851 25.13 28.6 83.4 21 4.6 40.2 -53.5 -2.106
17:13 1022 30.18 851 25.13 28.5 83.3 27 8.2 46.8 -55.32 -2.178
17:14 1022 30.18 851 25.13 28 82.3 30 9.1 48.4 -57.3 -2.256
17:15 1022 30.18 851 25.13 27.2 81 34 10.2 50.4 -59.45 -2.341
17:16 1022 30.18 851 25.13 26.5 79.7 34 9.7 49.5 -61.15 -2.407
17:17 1022 30.18 851 25.13 25.9 78.7 36 9.9 49.9 -62.24 -2.45
17:18 1022 30.18 851 25.13 25.4 77.8 33 8 46.4 -58.87 -2.318
17:19 1022 30.18 851 25.13 25.3 77.5 35 8.8 47.9 -53.63 -2.111
17:20 1022 30.18 851 25.13 25.1 77.1 35 8.6 47.6 -53.25 -2.096
17:21 1022 30.18 851 25.13 24.8 76.6 34 7.9 46.2 -47.79 -1.881
17:22 1022 30.18 851 25.13 24.6 76.2 41 10.8 51.5 -44.65 -1.758
17:23 1022 30.18 851 25.13 24 75.2 43 10.7 51.3 -43.9 -1.728
17:24 1022 30.18 851 25.13 23.3 74 35 7.2 45 -46.91 -1.847
17:25 1022 30.18 851 25.13 23.2 73.7 37 7.7 45.9 -49.96 -1.967
17:26 1022 30.18 852 25.16 22.9 73.3 46 10.8 51.4 -51.18 -2.015
17:27 1022 30.18 852 25.16 22.4 72.2 41 8.8 47.8 -51.86 -2.042
17:28 1022 30.18 852 25.16 22.1 71.7 47 10.2 50.4 -52.46 -2.065
17:29 1022 30.18 851 25.13 21.7 71 45 9.5 49 -52.97 -2.085
17:30 1022 30.18 851 25.13 21.6 70.8 35 5.7 42.2 -53.47 -2.105
17:31 1022 30.18 851 25.13 22.2 71.9 38 7.3 45.1 -54.04 -2.128
17:32 1022 30.18 851 25.13 22.5 72.5 43 9.6 49.3 -54.6 -2.15
17:33 1022 30.18 851 25.13 22.2 71.9 43 9.3 48.7 -55.14 -2.171
17:34 1022 30.18 851 25.13 22 71.6 46 10.1 50.1 -55.68 -2.192
17:35 1022 30.18 851 25.13 22 71.6 37 6.8 44.2 -56.29 -2.216
17:36 1022 30.18 851 25.13 22.5 72.6 36 6.8 44.2 -56.96 -2.243
17:37 1022 30.18 851 25.13 23 73.4 35 7.1 44.7 -57.59 -2.267
17:38 1022 30.18 851 25.13 23.3 74 32 5.8 42.5 -58.22 -2.292
17:39 1022 30.18 851 25.13 23.7 74.7 38 8.8 47.9 -58.87 -2.318
17:40 1022 30.18 851 25.13 23.7 74.6 39 9.1 48.5 -59.52 -2.343
17:41 1022 30.18 851 25.13 23.6 74.6 31 5.5 41.9 -60.15 -2.368
17:42 1022 30.18 851 25.13 24.1 75.3 31 6.2 43.2 -60.77 -2.393
17:43 1022 30.18 851 25.13 24.3 75.7 36 8.7 47.6 -61.36 -2.416
17:44 1022 30.18 851 25.13 24.1 75.4 39 9.6 49.3 -61.84 -2.435
17:45 1022 30.18 851 25.13 23.9 75 40 9.5 49.1 -62.26 -2.451
17:46 1022 30.18 851 25.13 23.9 74.9 41 10 50.1 -62.53 -2.462
17:47 1022 30.18 851 25.13 24 75.2 42 10.7 51.2 -62.73 -2.47
17:48 1022 30.18 851 25.13 24.4 75.9 32 6.9 44.4 -62.93 -2.478
17:49 1022 30.18 851 25.13 24.7 76.5 35 8.5 47.3 -63.16 -2.487
17:50 1022 30.18 851 25.13 25 77 33 7.7 45.8 -63.41 -2.496
17:51 1022 30.18 851 25.13 25.2 77.4 32 7.8 46 -63.66 -2.506
17:52 1022 30.18 851 25.13 25.3 77.5 33 8.3 46.9 -63.9 -2.516
17:53 1022 30.18 851 25.13 25.4 77.7 33 8.1 46.5 -64.13 -2.525
17:54 1022 30.18 851 25.13 25.4 77.8 36 9.3 48.8 -64.33 -2.533
17:55 1022 30.18 851 25.13 25.4 77.7 40 11.1 51.9 -64.52 -2.54
17:56 1022 30.18 851 25.13 25.3 77.6 35 9 48.1 -64.67 -2.546
17:57 1022 30.18 851 25.13 25.2 77.4 36 9.5 49.1 -64.83 -2.552
17:58 1022 30.18 851 25.13 25.2 77.4 36 9.5 49.1 -64.95 -2.557
17:59 1022 30.18 852 25.16 25.3 77.5 30 6.6 43.9 -65.05 -2.561
18:00 1022 30.18 852 25.16 25.3 77.6 31 7.3 45.1 -65.15 -2.565
18:01 1022 30.18 852 25.16 25.5 77.8 29 6.3 43.4 -65.22 -2.568
18:02 1022 30.18 852 25.16 25.5 77.9 25 4.5 40.1 -65.22 -2.568
18:03 1022 30.18 852 25.16 25.6 78.1 26 5.1 41.2 -65.26 -2.569
18:04 1022 30.18 852 25.16 25.7 78.3 26 5.2 41.4 -65.42 -2.576
18:05 1022 30.18 852 25.16 25.9 78.5 28 6.3 43.3 -65.7 -2.587
18:06 1022 30.18 852 25.16 26 78.8 25 4.6 40.3 -66 -2.598
18:07 1022 30.18 852 25.16 26.2 79.2 37 10.8 51.4 -66.32 -2.611
18:08 1022 30.18 852 25.16 26.1 78.9 32 8.3 46.9 -66.59 -2.622
18:09 1023 30.21 852 25.16 25.9 78.6 33 8.7 47.7 -66.82 -2.631
18:10 1023 30.21 852 25.16 25.6 78.1 35 9.2 48.5 -67.04 -2.639
18:11 1023 30.21 852 25.16 25.3 77.6 37 9.9 49.8 -67.25 -2.648
18:12 1023 30.21 852 25.16 25.1 77.2 37 9.5 49.1 -67.43 -2.655
18:13 1023 30.21 852 25.16 24.9 76.9 37 9.4 48.9 -67.59 -2.661
18:14 1023 30.21 852 25.16 24.9 76.8 39 10 50 -67.75 -2.667
18:15 1023 30.21 852 25.16 24.8 76.6 35 8.7 47.6 -67.87 -2.672
18:16 1023 30.21 852 25.16 24.7 76.4 42 11.1 52 -67.99 -2.677
18:17 1023 30.21 852 25.16 24.4 75.9 48 12.8 55 -68.07 -2.68
18:18 1023 30.21 852 25.16 24.1 75.4 46 11.9 53.4 -68.14 -2.683
18:19 1023 30.21 852 25.16 23.9 75 49 12.6 54.7 -68.22 -2.686
18:20 1023 30.21 852 25.16 23.7 74.7 51 13.2 55.7 -68.3 -2.689
18:21 1023 30.21 852 25.16 23.5 74.3 53 13.4 56.2 -68.38 -2.692
18:22 1023 30.21 852 25.16 23.3 74 51 12.8 55 -68.48 -2.696
18:23 1023 30.21 852 25.16 23.2 73.7 54 13.6 56.4 -68.59 -2.7
18:24 1023 30.21 852 25.16 23 73.4 55 13.5 56.3 -68.68 -2.704
18:25 1023 30.21 852 25.16 22.8 73 56 13.7 56.6 -68.78 -2.708
18:26 1023 30.21 853 25.19 22.6 72.7 58 13.9 57.1 -68.87 -2.711
18:27 1023 30.21 853 25.19 22.4 72.4 52 12.3 54.2 -68.97 -2.715
18:28 1023 30.21 853 25.19 22.4 72.3 53 12.5 54.5 -69.09 -2.72
18:29 1024 30.24 853 25.19 22.4 72.2 53 12.6 54.7 -69.22 -2.725
18:30 1023 30.21 853 25.19 22.5 72.5 48 11 51.9 -69.36 -2.731
18:31 1023 30.21 853 25.19 22.7 72.8 45 10.2 50.4 -69.49 -2.736
18:32 1024 30.24 853 25.19 22.9 73.2 43 9.9 49.7 -69.64 -2.742
18:33 1023 30.21 853 25.19 23 73.4 43 9.8 49.6 -69.78 -2.747
18:34 1024 30.24 853 25.19 23.1 73.5 42 9.5 49.1 -69.91 -2.752
18:35 1023 30.21 853 25.19 23 73.4 43 10 49.9 -70 -2.756
18:36 1024 30.24 853 25.19 23 73.3 45 10.4 50.8 -70.1 -2.76
18:37 1024 30.24 853 25.19 22.8 73 46 10.6 51.1 -70.2 -2.764
18:38 1024 30.24 853 25.19 22.6 72.7 47 10.8 51.4 -70.4 -2.772
18:39 1024 30.24 853 25.19 22.5 72.6 44 9.8 49.7 -70.5 -2.776
18:40 1024 30.24 853 25.19 22.5 72.5 36 7.1 44.7 -70.6 -2.78
18:41 1024 30.24 853 25.19 22.8 73.1 38 8.1 46.6 -70.7 -2.783
18:42 1024 30.24 853 25.19 22.9 73.3 40 9 48.1 -70.8 -2.787
18:43 1024 30.24 853 25.19 22.9 73.2 38 8 46.5 -70.9 -2.791
18:44 1024 30.24 853 25.19 23 73.4 38 8.2 46.8 -71 -2.795
18:45 1024 30.24 853 25.19 23 73.3 39 8.5 47.3 -71.2 -2.803
18:46 1024 30.24 853 25.19 22.9 73.2 38 7.8 46.1 -71.3 -2.807
18:47 1024 30.24 853 25.19 22.9 73.2 39 8.4 47.2 -71.4 -2.811
18:48 1024 30.24 853 25.19 22.8 73 41 8.9 48 -71.5 -2.815
18:49 1024 30.24 853 25.19 22.6 72.8 42 9.3 48.8 -71.6 -2.819
18:50 1024 30.24 853 25.19 22.5 72.4 41 8.7 47.7 -71.6 -2.819
18:51 1024 30.24 853 25.19 22.3 72.2 44 9.6 49.3 -71.7 -2.823
18:52 1024 30.24 853 25.19 22.2 71.9 45 9.8 49.6 -71.8 -2.827
18:53 1024 30.24 853 25.19 22 71.6 45 9.8 49.6 -72 -2.835
18:54 1023 30.21 853 25.19 21.8 71.3 47 10.1 50.2 -72 -2.835
18:55 1023 30.21 853 25.19 21.7 71 45 9.4 48.9 -72.1 -2.839
18:56 1023 30.21 853 25.19 21.7 71 44 9 48.2 -72.3 -2.846
18:57 1023 30.21 853 25.19 21.7 71.1 44 9 48.2 -72.4 -2.85
18:58 1023 30.21 853 25.19 21.8 71.2 41 8.1 46.6 -72.5 -2.854
18:59 1023 30.21 853 25.19 21.9 71.4 39 7.3 45.2 -72.6 -2.858
19:00 1023 30.21 853 25.19 22 71.7 36 6.6 43.8 -72.7 -2.862
19:01 1023 30.21 853 25.19 22.2 72 39 7.8 46 -72.9 -2.87
19:02 1023 30.21 852 25.16 22.4 72.3 39 7.9 46.2 -73 -2.874
19:03 1023 30.21 852 25.16 22.5 72.5 37 7.3 45.1 -73.1 -2.878
19:04 1023 30.21 852 25.16 22.6 72.7 39 8 46.4 -73.2 -2.882
19:05 1023 30.21 852 25.16 22.6 72.7 41 9 48.3 -73.4 -2.89
19:06 1023 30.21 852 25.16 22.5 72.5 41 8.8 47.8 -73.5 -2.894
19:07 1023 30.21 852 25.16 22.4 72.3 42 9.2 48.6 -73.6 -2.898
19:08 1023 30.21 852 25.16 22.2 72 45 9.9 49.9 -73.7 -2.902
19:09 1023 30.21 852 25.16 21.9 71.5 48 10.4 50.8 -73.8 -2.906
19:10 1023 30.21 852 25.16 21.7 71 48 10.3 50.5 -73.9 -2.909
19:11 1023 30.21 852 25.16 21.5 70.7 50 10.7 51.3 -74 -2.913
19:12 1023 30.21 852 25.16 21.2 70.1 53 11.3 52.3 -74.1 -2.917
19:13 1023 30.21 852 25.16 20.9 69.6 53 11.1 51.9 -74.2 -2.921
19:14 1023 30.21 852 25.16 20.7 69.3 53 11 51.8 -74.3 -2.925
19:15 1023 30.21 853 25.19 20.6 69 52 10.5 51 -74.4 -2.929
19:16 1023 30.21 853 25.19 20.5 68.9 54 11 51.8 -74.4 -2.929
19:17 1023 30.21 853 25.19 20.4 68.8 52 10.4 50.8 -74.5 -2.933
19:18 1023 30.21 853 25.19 20.4 68.6 54 10.8 51.5 -74.6 -2.937
19:19 1023 30.21 853 25.19 20.3 68.6 54 10.7 51.3 -74.7 -2.941
19:20 1023 30.21 853 25.19 20.3 68.6 53 10.7 51.2 -74.8 -2.945
19:21 1023 30.21 853 25.19 20.3 68.6 49 9.5 49 -74.9 -2.949
19:22 1023 30.21 853 25.19 20.6 69.1 49 9.5 49.2 -75 -2.953
19:23 1023 30.21 853 25.19 20.8 69.5 46 9.1 48.3 -75.1 -2.957
19:24 1023 30.21 853 25.19 21 69.8 43 8 46.3 -75.3 -2.965
19:25 1024 30.24 853 25.19 21.2 70.2 44 8.6 47.4 -75.4 -2.969
19:26 1024 30.24 853 25.19 21.4 70.4 47 9.9 49.7 -75.5 -2.972
19:27 1024 30.24 853 25.19 21.4 70.4 46 9.5 49.1 -75.7 -2.98
19:28 1024 30.24 853 25.19 21.4 70.5 45 9.2 48.5 -75.9 -2.988
19:29 1024 30.24 853 25.19 21.4 70.6 47 9.7 49.5 -76.1 -2.996
19:30 1024 30.24 853 25.19 21.4 70.4 49 10.2 50.4 -76.5 -3.012
19:31 1024 30.24 853 25.19 21.2 70.2 48 9.8 49.7 -76.9 -3.028
19:32 1024 30.24 853 25.19 21.1 70 51 10.6 51 -77.2 -3.039
19:33 1024 30.24 853 25.19 21 69.8 52 10.9 51.5 -77.9 -3.067
19:34 1024 30.24 853 25.19 20.8 69.4 51 10.4 50.7 -79.1 -3.114
19:35 1024 30.24 853 25.19 20.7 69.3 49 9.8 49.7 -80.1 -3.154
19:36 1024 30.24 853 25.19 20.8 69.5 46 9.1 48.3 -80.6 -3.173
19:37 1024 30.24 853 25.19 20.9 69.6 47 9.2 48.5 -80.9 -3.185
19:38 1024 30.24 853 25.19 21 69.8 44 8.5 47.4 -80.7 -3.177
19:39 1024 30.24 853 25.19 21 69.9 47 9.5 49.1 -80.6 -3.173
19:40 1024 30.24 853 25.19 21 69.7 49 10 50 -80.3 -3.161
19:41 1024 30.24 853 25.19 20.8 69.5 51 10.6 51 -79.5 -3.13
19:42 1024 30.24 853 25.19 20.6 69 52 10.5 50.9 -78.9 -3.106
19:43 1024 30.24 853 25.19 20.4 68.7 54 10.8 51.5 -77.6 -3.055
19:44 1024 30.24 853 25.19 20.3 68.5 46 8.6 47.4 -76.3 -3.004
19:45 1024 30.24 853 25.19 20.7 69.3 43 7.9 46.1 -75.5 -2.972
19:46 1024 30.24 853 25.19 21.3 70.3 42 7.9 46.2 -76.1 -2.996
19:47 1024 30.24 853 25.19 21.6 70.9 41 7.9 46.3 -77.1 -3.035
19:48 1024 30.24 853 25.19 21.8 71.2 43 8.9 48.1 -77.6 -3.055
19:49 1024 30.24 853 25.19 21.7 71 41 8.2 46.7 -77.7 -3.059
19:50 1024 30.24 853 25.19 21.6 70.8 45 9.2 48.5 -77.6 -3.055
19:51 1024 30.24 853 25.19 21.2 70.1 47 9.5 49.1 -77.5 -3.051
19:52 1024 30.24 853 25.19 20.9 69.6 46 9 48.2 -77.5 -3.051
19:53 1024 30.24 853 25.19 20.8 69.5 49 9.8 49.6 -77.6 -3.055
19:54 1023 30.21 853 25.19 20.7 69.3 47 9 48.2 -77.8 -3.063
19:55 1023 30.21 853 25.19 20.9 69.6 33 4.3 39.8 -78 -3.071
19:56 1023 30.21 853 25.19 21.6 70.8 31 4 39.1 -78.3 -3.083
19:57 1023 30.21 853 25.19 22.2 72 30 3.9 39.1 -78.9 -3.106
19:58 1023 30.21 853 25.19 22.6 72.7 38 7.8 46 -79.9 -3.146
19:59 1023 30.21 853 25.19 22.6 72.6 40 8.4 47.1 -80.9 -3.185
20:00 1023 30.21 853 25.19 22.3 72.1 43 9.3 48.8 -81.8 -3.22
20:01 1023 30.21 853 25.19 21.9 71.5 44 9.2 48.5 -82.3 -3.24
20:02 1023 30.21 853 25.19 21.6 70.8 45 9.2 48.6 -82.3 -3.24
20:03 1023 30.21 852 25.16 21.4 70.6 44 8.8 47.8 -81.8 -3.22
20:04 1023 30.21 852 25.16 21.2 70.2 50 10.5 50.8 -81.3 -3.201
20:05 1023 30.21 852 25.16 20.9 69.6 40 6.9 44.3 -80.8 -3.181
20:06 1023 30.21 852 25.16 20.9 69.7 45 8.6 47.5 -79 -3.11
20:07 1023 30.21 852 25.16 21 69.7 46 9.1 48.3 -78.4 -3.087
20:08 1023 30.21 852 25.16 21 69.8 46 9 48.2 -78.3 -3.083
20:09 1023 30.21 852 25.16 21 69.9 43 8.1 46.5 -78.4 -3.087
20:10 1023 30.21 852 25.16 21.1 70.1 43 8.1 46.6 -78.4 -3.087
20:11 1023 30.21 852 25.16 21.3 70.3 39 7 44.6 -78.5 -3.091
20:12 1023 30.21 852 25.16 21.4 70.6 39 7.2 45 -78.6 -3.094
20:13 1023 30.21 852 25.16 21.7 71 39 7.2 44.9 -78.7 -3.098
20:14 1023 30.21 852 25.16 21.9 71.5 43 8.9 48.1 -78.8 -3.102
20:15 1023 30.21 852 25.16 22.1 71.7 44 9.5 49.1 -78.9 -3.106
20:16 1023 30.21 852 25.16 21.7 71 46 9.6 49.3 -78.9 -3.106
20:17 1023 30.21 852 25.16 21.3 70.3 40 7.3 45.2 -79 -3.11
20:18 1023 30.21 852 25.16 21.4 70.4 37 6.2 43.2 -79 -3.11
20:19 1023 30.21 852 25.16 21.7 71 39 7.4 45.4 -79.1 -3.114
20:20 1023 30.21 852 25.16 21.7 71.1 43 8.9 48 -79.1 -3.114
20:21 1023 30.21 852 25.16 21.4 70.5 45 9 48.2 -79.2 -3.118
20:22 1023 30.21 852 25.16 21 69.8 43 8 46.3 -79.2 -3.118
20:23 1023 30.21 852 25.16 20.7 69.3 48 9.5 49.1 -79.2 -3.118
20:24 1023 30.21 852 25.16 20.3 68.6 54 10.9 51.6 -79.3 -3.122
20:25 1023 30.21 852 25.16 19.9 67.9 55 10.7 51.3 -79.3 -3.122
20:26 1023 30.21 852 25.16 19.7 67.4 54 10.3 50.5 -79.3 -3.122
20:27 1023 30.21 852 25.16 19.6 67.2 52 9.6 49.2 -79.4 -3.126
20:28 1023 30.21 852 25.16 19.6 67.3 51 9.4 49 -79.4 -3.126
20:29 1023 30.21 852 25.16 19.5 67.2 52 9.7 49.4 -79.4 -3.126
20:30 1023 30.21 852 25.16 19.5 67.1 52 9.5 49.1 -79.5 -3.13
20:31 1023 30.21 852 25.16 19.4 66.9 54 10 50 -79.5 -3.13
20:32 1023 30.21 852 25.16 19.2 66.6 56 10.3 50.5 -79.5 -3.13
20:33 1023 30.21 852 25.16 19 66.2 57 10.5 50.9 -79.6 -3.134
20:34 1023 30.21 852 25.16 18.7 65.7 58 10.4 50.7 -79.6 -3.134
20:35 1023 30.21 852 25.16 18.5 65.3 59 10.6 51 -79.7 -3.138
20:36 1023 30.21 852 25.16 18.3 65 58 10 50.1 -79.7 -3.138
20:37 1023 30.21 852 25.16 18.3 64.9 58 10 50 -79.8 -3.142
20:38 1023 30.21 852 25.16 18.4 65.1 55 9.4 48.9 -79.8 -3.142
20:39 1023 30.21 852 25.16 18.6 65.4 53 9 48.2 -79.9 -3.146
20:40 1023 30.21 852 25.16 18.8 65.9 52 9 48.2 -80 -3.15
20:41 1023 30.21 852 25.16 19 66.3 52 9.1 48.4 -80 -3.15
20:42 1023 30.21 852 25.16 19.1 66.3 53 9.4 48.9 -80.1 -3.154
20:43 1023 30.21 852 25.16 19 66.3 55 9.8 49.7 -80.1 -3.154
20:44 1023 30.21 852 25.16 18.9 66.1 57 10.2 50.4 -80.2 -3.157
20:45 1023 30.21 852 25.16 18.8 65.8 58 10.5 50.9 -80.2 -3.157
20:46 1023 30.21 852 25.16 18.6 65.5 59 10.6 51.1 -80.3 -3.161
20:47 1023 30.21 852 25.16 18.4 65.1 60 10.5 51 -80.3 -3.161
20:48 1023 30.21 852 25.16 18.3 65 58 10.2 50.3 -80.4 -3.165
20:49 1023 30.21 852 25.16 18.4 65.1 59 10.3 50.5 -80.4 -3.165
20:50 1023 30.21 852 25.16 18.5 65.3 59 10.4 50.8 -80.5 -3.169
20:51 1023 30.21 852 25.16 18.6 65.4 58 10.3 50.6 -80.5 -3.169
20:52 1023 30.21 852 25.16 18.5 65.4 61 10.9 51.6 -80.6 -3.173
20:53 1023 30.21 852 25.16 18.5 65.2 63 11.3 52.4 -80.6 -3.173
20:54 1023 30.21 852 25.16 18.3 65 60 10.5 50.9 -80.7 -3.177
20:55 1023 30.21 852 25.16 18.4 65.1 60 10.6 51.1 -80.7 -3.177
20:56 1023 30.21 852 25.16 18.5 65.3 60 10.7 51.3 -80.8 -3.181
20:57 1023 30.21 852 25.16 18.5 65.4 62 11.1 52 -80.9 -3.185
20:58 1023 30.21 852 25.16 18.5 65.2 61 10.9 51.6 -80.9 -3.185
20:59 1023 30.21 852 25.16 18.4 65.2 61 10.8 51.4 -81 -3.189
21:00 1023 30.21 852 25.16 18.5 65.3 61 11 51.7 -81 -3.189
21:01 1023 30.21 852 25.16 18.5 65.3 60 10.7 51.3 -81 -3.189
21:02 1023 30.21 852 25.16 18.5 65.3 62 11.2 52.1 -81.1 -3.193
21:03 1023 30.21 852 25.16 18.4 65.2 61 10.9 51.6 -81.1 -3.193
21:04 1023 30.21 852 25.16 18.5 65.3 60 10.8 51.4 -81.2 -3.197
21:05 1023 30.21 853 25.19 18.5 65.4 60 10.8 51.5 -81.2 -3.197
21:06 1023 30.21 853 25.19 18.5 65.3 59 10.5 50.9 -81.3 -3.201
21:07 1023 30.21 853 25.19 18.6 65.4 59 10.5 50.9 -81.3 -3.201
21:08 1023 30.21 853 25.19 18.7 65.6 60 10.9 51.6 -81.4 -3.205
21:09 1023 30.21 853 25.19 18.7 65.6 61 11.1 51.9 -81.4 -3.205
21:10 1023 30.21 853 25.19 18.6 65.5 61 11 51.8 -81.4 -3.205
21:11 1023 30.21 853 25.19 18.5 65.4 61 11.1 51.9 -81.5 -3.209
21:12 1023 30.21 853 25.19 18.6 65.4 62 11.2 52.1 -81.5 -3.209
21:13 1023 30.21 853 25.19 18.5 65.3 62 11.2 52.1 -81.5 -3.209
21:14 1023 30.21 853 25.19 18.5 65.3 63 11.3 52.4 -81.5 -3.209
21:15 1023 30.21 853 25.19 18.5 65.2 63 11.3 52.4 -81.5 -3.209
21:16 1023 30.21 853 25.19 18.4 65.2 64 11.5 52.8 -81.5 -3.209
21:17 1023 30.21 852 25.16 18.4 65.1 62 11.2 52.1 -81.5 -3.209
21:18 1023 30.21 853 25.19 18.4 65 64 11.5 52.7 -81.5 -3.209
21:19 1023 30.21 853 25.19 18.3 64.9 64 11.5 52.8 -81.5 -3.209
21:20 1023 30.21 853 25.19 18.2 64.7 66 11.9 53.4 -81.5 -3.209
21:21 1023 30.21 853 25.19 18.2 64.8 64 11.5 52.7 -81.5 -3.209
21:22 1023 30.21 853 25.19 18.2 64.8 64 11.4 52.5 -81.6 -3.213
21:23 1023 30.21 853 25.19 18.3 64.9 64 11.3 52.4 -81.7 -3.217
21:24 1023 30.21 853 25.19 18.3 65 64 11.4 52.5 -81.7 -3.217
21:25 1023 30.21 853 25.19 18.3 64.9 63 11.3 52.3 -81.9 -3.224
21:26 1024 30.24 853 25.19 18.4 65.1 61 10.9 51.6 -82 -3.228
21:27 1024 30.24 853 25.19 18.5 65.3 58 10.1 50.2 -82.1 -3.232
21:28 1024 30.24 853 25.19 18.8 65.8 63 11.7 53 -82.3 -3.24
21:29 1024 30.24 853 25.19 18.8 65.8 65 12.1 53.8 -82.9 -3.264
21:30 1024 30.24 853 25.19 18.6 65.4 62 11.2 52.2 -83.1 -3.272
21:31 1024 30.24 853 25.19 18.4 65.2 64 11.5 52.7 -82.9 -3.264
21:32 1024 30.24 853 25.19 18.4 65 67 12.2 53.9 -83.5 -3.287
21:33 1024 30.24 853 25.19 18.2 64.7 70 12.7 54.8 -84.1 -3.311
21:34 1024 30.24 853 25.19 17.9 64.3 71 12.6 54.7 -84.4 -3.323
21:35 1024 30.24 853 25.19 17.7 63.9 69 12 53.6 -85.2 -3.354
21:36 1024 30.24 853 25.19 17.6 63.8 68 11.6 53 -85.5 -3.366
21:37 1024 30.24 853 25.19 17.7 63.8 67 11.6 53 -85.8 -3.378
21:38 1024 30.24 853 25.19 17.8 64 64 10.9 51.5 -86.3 -3.398
21:39 1024 30.24 853 25.19 17.9 64.3 64 11.1 52 -87 -3.425
21:40 1024 30.24 853 25.19 18.2 64.7 61 10.6 51 -86.5 -3.406
21:41 1024 30.24 853 25.19 18.4 65 60 10.6 51 -86.9 -3.421
21:42 1024 30.24 853 25.19 18.6 65.4 61 10.9 51.6 -86.7 -3.413
21:43 1024 30.24 853 25.19 18.7 65.6 57 10.1 50.2 -87.2 -3.433
21:44 1024 30.24 853 25.19 18.8 65.9 58 10.4 50.7 -87.6 -3.449
21:45 1024 30.24 854 25.22 19 66.2 53 9.3 48.8 -88 -3.465
21:46 1024 30.24 854 25.22 19.2 66.6 54 9.8 49.6 -87.9 -3.461
21:47 1024 30.24 854 25.22 19.4 66.8 55 10.1 50.2 -87.7 -3.453
21:48 1024 30.24 854 25.22 19.4 66.8 54 9.9 49.8 -88.4 -3.48
21:49 1024 30.24 854 25.22 19.3 66.7 55 10.1 50.2 -88.4 -3.48
21:50 1025 30.27 854 25.22 19.3 66.7 55 10.2 50.3 -88.1 -3.469
21:51 1025 30.27 854 25.22 19.2 66.6 57 10.7 51.2 -87.5 -3.445
21:52 1025 30.27 854 25.22 19.1 66.3 57 10.5 50.8 -87.8 -3.457
21:53 1025 30.27 854 25.22 18.9 66 61 11.3 52.3 -86.7 -3.413
21:54 1025 30.27 854 25.22 18.5 65.2 63 11.5 52.6 -83.5 -3.287
21:55 1025 30.27 854 25.22 18 64.3 64 11.2 52.1 -81.6 -3.213
21:56 1025 30.27 854 25.22 17.6 63.7 67 11.5 52.7 -80.2 -3.157
21:57 1025 30.27 854 25.22 17.4 63.2 71 12.1 53.8 -79.4 -3.126
21:58 1025 30.27 854 25.22 17 62.5 71 11.8 53.3 -78.9 -3.106
21:59 1025 30.27 854 25.22 16.7 62.1 73 11.8 53.3 -78.6 -3.094
22:00 1025 30.27 854 25.22 16.6 61.8 75 12.2 53.9 -78.5 -3.091
22:01 1025 30.27 854 25.22 16.4 61.5 75 12 53.6 -78.4 -3.087
22:02 1025 30.27 854 25.22 16.3 61.3 75 12 53.5 -78.4 -3.087
22:03 1025 30.27 854 25.22 16.3 61.3 76 12.1 53.7 -78.5 -3.091
22:04 1025 30.27 854 25.22 16.3 61.3 75 11.9 53.5 -78.5 -3.091
22:05 1025 30.27 854 25.22 16.3 61.3 79 12.6 54.7 -78.5 -3.091
22:06 1025 30.27 854 25.22 16.1 60.9 78 12.4 54.2 -78.5 -3.091
22:07 1025 30.27 854 25.22 15.9 60.7 78 12.2 54 -78.5 -3.091
22:08 1025 30.27 854 25.22 16 60.7 77 11.9 53.5 -78.6 -3.094
22:09 1025 30.27 854 25.22 16.1 60.9 70 10.7 51.2 -78.6 -3.094
22:10 1025 30.27 854 25.22 16.4 61.5 65 9.9 49.8 -78.7 -3.098
22:11 1025 30.27 854 25.22 16.7 62.1 63 9.7 49.4 -78.8 -3.102
22:12 1025 30.27 854 25.22 17.1 62.7 63 10 49.9 -78.9 -3.106
22:13 1025 30.27 854 25.22 17.4 63.3 64 10.5 50.9 -79 -3.11
22:14 1025 30.27 854 25.22 17.6 63.6 61 10.2 50.3 -79.1 -3.114
22:15 1025 30.27 854 25.22 17.7 63.9 64 11 51.9 -79.2 -3.118
22:16 1025 30.27 854 25.22 17.8 64.1 63 10.8 51.5 -79.3 -3.122
22:17 1025 30.27 854 25.22 17.8 64.1 63 10.8 51.5 -79.3 -3.122
22:18 1025 30.27 854 25.22 17.7 63.9 69 12.1 53.7 -79.4 -3.126
22:19 1024 30.24 854 25.22 17.4 63.2 67 11.2 52.1 -79.4 -3.126
22:20 1024 30.24 854 25.22 17.3 63.2 67 11.3 52.3 -79.4 -3.126
22:21 1024 30.24 854 25.22 17.3 63.2 60 9.5 49.1 -79.5 -3.13
22:22 1024 30.24 854 25.22 17.7 63.8 59 9.6 49.3 -79.5 -3.13
22:23 1024 30.24 853 25.19 18.2 64.7 59 10 50.1 -79.6 -3.134
22:24 1024 30.24 853 25.19 18.4 65.1 61 10.8 51.5 -79.7 -3.138
22:25 1024 30.24 853 25.19 18.4 65.2 58 10.2 50.4 -79.7 -3.138
22:26 1024 30.24 853 25.19 18.5 65.4 58 10.2 50.3 -79.8 -3.142
22:27 1024 30.24 853 25.19 18.5 65.4 60 10.7 51.2 -79.9 -3.146
22:28 1024 30.24 853 25.19 18.4 65.1 63 11.2 52.2 -80 -3.15
22:29 1024 30.24 853 25.19 18.1 64.6 65 11.5 52.7 -80 -3.15
22:30 1024 30.24 853 25.19 17.8 64 69 12.1 53.7 -80.1 -3.154
22:31 1024 30.24 853 25.19 17.4 63.3 72 12.3 54.2 -80.1 -3.154
22:32 1024 30.24 853 25.19 17 62.6 73 12.3 54.1 -80.2 -3.157
22:33 1024 30.24 853 25.19 16.7 62 74 12.1 53.8 -80.2 -3.157
22:34 1024 30.24 853 25.19 16.5 61.7 75 12.1 53.8 -80.2 -3.157
22:35 1024 30.24 853 25.19 16.4 61.6 75 12.1 53.7 -80.2 -3.157
22:36 1024 30.24 853 25.19 16.3 61.4 75 11.9 53.4 -80.2 -3.157
22:37 1024 30.24 853 25.19 16.3 61.3 75 11.9 53.4 -80.3 -3.161
22:38 1024 30.24 853 25.19 16.3 61.3 73 11.5 52.8 -80.3 -3.161
22:39 1024 30.24 853 25.19 16.4 61.5 73 11.5 52.8 -80.4 -3.165
22:40 1024 30.24 853 25.19 16.4 61.5 72 11.3 52.4 -80.4 -3.165
22:41 1024 30.24 853 25.19 16.5 61.6 72 11.4 52.5 -80.4 -3.165
22:42 1024 30.24 853 25.19 16.4 61.6 71 11.2 52.2 -80.5 -3.169
22:43 1024 30.24 853 25.19 16.5 61.8 71 11.2 52.2 -80.5 -3.169
22:44 1024 30.24 853 25.19 16.5 61.7 70 11.2 52.1 -80.6 -3.173
22:45 1024 30.24 853 25.19 16.5 61.7 71 11.3 52.3 -80.6 -3.173
22:46 1024 30.24 853 25.19 16.5 61.6 68 10.6 51.1 -80.6 -3.173
22:47 1024 30.24 853 25.19 16.6 62 66 10.3 50.5 -80.7 -3.177
22:48 1024 30.24 853 25.19 16.8 62.3 66 10.6 51.1 -80.7 -3.177
22:49 1024 30.24 853 25.19 17.1 62.7 63 10.1 50.2 -80.8 -3.181
22:50 1024 30.24 853 25.19 17.3 63.1 63 10.1 50.3 -80.8 -3.181
22:51 1024 30.24 853 25.19 17.4 63.3 63 10.3 50.6 -80.8 -3.181
22:52 1024 30.24 853 25.19 17.4 63.3 63 10.4 50.6 -80.9 -3.185
22:53 1024 30.24 853 25.19 17.4 63.2 63 10.3 50.5 -80.9 -3.185
22:54 1024 30.24 853 25.19 17.3 63.2 64 10.5 51 -81 -3.189
22:55 1024 30.24 853 25.19 17.2 63 63 10.3 50.5 -81.1 -3.193
22:56 1024 30.24 853 25.19 17.2 62.9 65 10.7 51.3 -81.2 -3.197
22:57 1024 30.24 853 25.19 17 62.5 68 11.1 52 -81.2 -3.197
22:58 1024 30.24 853 25.19 16.6 61.8 70 11.1 52 -81.3 -3.201
22:59 1024 30.24 853 25.19 16.2 61.2 71 10.9 51.7 -81.3 -3.201
23:00 1024 30.24 853 25.19 16 60.8 72 11 51.8 -81.4 -3.205
23:01 1024 30.24 853 25.19 15.8 60.5 73 11 51.8 -81.4 -3.205
23:02 1024 30.24 853 25.19 15.6 60.1 73 10.8 51.5 -81.5 -3.209
23:03 1024 30.24 853 25.19 15.6 60 73 10.8 51.4 -81.5 -3.209
23:04 1024 30.24 853 25.19 15.5 59.9 73 10.8 51.5 -81.5 -3.209
23:05 1024 30.24 853 25.19 15.5 59.8 74 10.8 51.4 -81.5 -3.209
23:06 1024 30.24 853 25.19 15.4 59.7 73 10.7 51.2 -81.6 -3.213
23:07 1024 30.24 853 25.19 15.4 59.7 72 10.5 50.9 -81.6 -3.213
23:08 1024 30.24 853 25.19 15.4 59.7 73 10.7 51.2 -81.6 -3.213
23:09 1024 30.24 853 25.19 15.4 59.6 73 10.5 51 -81.7 -3.217
23:10 1024 30.24 853 25.19 15.3 59.5 73 10.6 51.1 -81.7 -3.217
23:11 1024 30.24 853 25.19 15.3 59.5 73 10.5 51 -81.7 -3.217
23:12 1024 30.24 853 25.19 15.2 59.4 72 10.3 50.5 -81.7 -3.217
23:13 1024 30.24 853 25.19 15.3 59.6 72 10.4 50.7 -81.8 -3.22
23:14 1024 30.24 853 25.19 15.4 59.7 72 10.4 50.8 -81.8 -3.22
23:15 1024 30.24 853 25.19 15.4 59.7 73 10.5 51 -81.8 -3.22
23:16 1024 30.24 853 25.19 15.3 59.5 73 10.5 50.9 -81.9 -3.224
23:17 1024 30.24 853 25.19 15.2 59.4 74 10.6 51 -81.9 -3.224
23:18 1024 30.24 853 25.19 15.1 59.1 74 10.6 51.1 -81.9 -3.224
23:19 1024 30.24 853 25.19 15 59 73 10.2 50.3 -82 -3.228
23:20 1024 30.24 853 25.19 15 59 73 10.2 50.3 -82.1 -3.232
23:21 1024 30.24 853 25.19 15.1 59.1 72 10 50 -82.2 -3.236
23:22 1024 30.24 853 25.19 15.2 59.3 70 9.8 49.6 -82.2 -3.236
23:23 1024 30.24 853 25.19 15.4 59.7 69 9.9 49.8 -82.3 -3.24
23:24 1024 30.24 853 25.19 15.5 59.9 69 9.9 49.9 -82.4 -3.244
23:25 1024 30.24 853 25.19 15.5 59.9 69 9.8 49.6 -82.4 -3.244
23:26 1024 30.24 853 25.19 15.4 59.8 69 9.9 49.9 -82.4 -3.244
23:27 1024 30.24 853 25.19 15.4 59.7 69 9.9 49.8 -82.5 -3.248
23:28 1024 30.24 853 25.19 15.3 59.6 70 9.9 49.8 -82.5 -3.248
23:29 1024 30.24 853 25.19 15.2 59.4 70 9.9 49.8 -82.6 -3.252
23:30 1024 30.24 853 25.19 15.1 59.2 71 9.9 49.8 -82.6 -3.252
23:31 1024 30.24 853 25.19 15 58.9 72 10 50 -82.6 -3.252
23:32 1024 30.24 853 25.19 14.8 58.6 73 10 50.1 -82.6 -3.252
23:33 1024 30.24 853 25.19 14.7 58.5 72 9.9 49.8 -82.6 -3.252
23:34 1024 30.24 853 25.19 14.8 58.7 74 10.2 50.3 -82.5 -3.248
23:35 1024 30.24 853 25.19 14.7 58.4 74 10.1 50.1 -82.2 -3.236
23:36 1024 30.24 853 25.19 14.7 58.4 73 9.9 49.9 -82.1 -3.232
23:37 1024 30.24 853 25.19 14.8 58.6 73 10.1 50.2 -81.9 -3.224
23:38 1024 30.24 853 25.19 14.8 58.6 74 10.1 50.3 -81.7 -3.217
23:39 1024 30.24 853 25.19 14.8 58.6 73 10.1 50.2 -81.6 -3.213
23:40 1024 30.24 853 25.19 14.8 58.6 73 10.1 50.2 -81.5 -3.209
23:41 1024 30.24 853 25.19 14.8 58.6 73 10.1 50.2 -81.4 -3.205
23:42 1024 30.24 853 25.19 14.8 58.6 73 10.1 50.2 -81.4 -3.205
23:43 1024 30.24 853 25.19 14.7 58.5 73 10 49.9 -81.4 -3.205
23:44 1024 30.24 853 25.19 14.8 58.6 73 10 49.9 -81.4 -3.205
23:45 1024 30.24 853 25.19 14.9 58.7 72 9.9 49.8 -81.4 -3.205
23:46 1024 30.24 853 25.19 15.1 59.1 70 9.8 49.6 -81.4 -3.205
23:47 1024 30.24 853 25.19 15.3 59.6 69 9.8 49.6 -81.4 -3.205
23:48 1024 30.24 853 25.19 15.5 59.9 69 9.8 49.7 -81.4 -3.205
23:49 1024 30.24 853 25.19 15.6 60 70 10.2 50.3 -81.3 -3.201
23:50 1024 30.24 853 25.19 15.4 59.6 72 10.3 50.6 -81.3 -3.201
23:51 1024 30.24 853 25.19 15.1 59.1 73 10.4 50.7 -81.3 -3.201
23:52 1024 30.24 853 25.19 14.8 58.6 75 10.4 50.7 -81.2 -3.197
23:53 1024 30.24 853 25.19 14.5 58.1 76 10.3 50.6 -81.2 -3.197
23:54 1024 30.24 853 25.19 14.3 57.7 76 10.2 50.3 -81.2 -3.197
23:55 1024 30.24 853 25.19 14.3 57.7 76 10.2 50.3 -81.2 -3.197
23:56 1024 30.24 853 25.19 14.3 57.7 77 10.3 50.5 -81.2 -3.197
23:57 1024 30.24 853 25.19 14.2 57.5 77 10.1 50.3 -81.2 -3.197
23:58 1024 30.24 853 25.19 14.1 57.4 76 10 50.1 -81.2 -3.197
23:59 1024 30.24 853 25.19 14.1 57.3 77 10.1 50.2 -81.2 -3.197
24:00 1024 30.24 853 25.19 14 57.1 78 10.2 50.4 -81.3 -3.201